Another Hard Day at the Office Weather Stats

 
 
 

High monthly outside Temperature, 22.8 , °C
Low monthly outside Temperature, -1.0 , °C
High yearly outside Temperature, 30.9 , °C
Low yearly outside Temperature, -2.2 , °C

Low monthly barometer, 1001.1 , mb
High monthly barometer, 1028.0 , mb
Low yearly barometer, 975.0 , mb
High yearly barometer 1041.1 , mb

High wind speed, 25.0 , mph
Time of High wind speed, 21:37 , mph
High monthly wind speed, 47.0 , mph
High yearly wind speed, 55.0 , mph

 

 




3137
                    Temp     Hi    Low   Out    Dew  Wind  Wind   Wind    Hi    Hi   Wind   Heat    THW                Rain    Heat    Cool    In     In    In     In     In   In Air  Wind  Wind    ISS   Arc.
  Date    Time     Out   Temp   Temp   Hum    Pt. Speed   Dir    Run Speed   Dir  Chill  Index  Index   Bar    Rain  Rate    D-D     D-D    Temp   Hum    Dew   Heat    EMC Density  Samp   Tx   Recept  Int.
---------------------------------------------------------------------------------------------------------------------------------------------------------------------------------------------------------------
 6/08/20   0:05   19.2   19.2   19.2    87   16.9   8.0   WSW   0.67  13.0    SW   18.8   19.9   19.6  1014.3  0.00  0.00   0.000   0.003   27.4    52   16.7   27.8   9.42  .0720    114    1    100.0    5 
 6/08/20   0:10   19.2   19.2   19.1    88   17.1   6.0     W   0.50  11.0     W   19.2   19.9   19.9  1014.3  0.00  0.00   0.000   0.003   27.4    51   16.4   27.7   9.32  .0721    117    1    100.0    5 
 6/08/20   0:15   19.1   19.1   19.1    88   17.0   7.0     W   0.58  11.0   WNW   19.1   19.8   19.8  1014.3  0.00  0.00   0.000   0.003   27.4    52   16.7   27.8   9.42  .0720    117    1    100.0    5 
 6/08/20   0:20   18.9   19.1   18.9    89   17.1   7.0     W   0.58  12.0     W   18.9   19.7   19.7  1014.3  0.00  0.00   0.000   0.002   27.4    51   16.4   27.7   9.32  .0721    117    1    100.0    5 
 6/08/20   0:25   18.9   18.9   18.9    89   17.0   7.0     W   0.58  10.0     W   18.9   19.6   19.6  1014.2  0.00  0.00   0.000   0.002   27.4    51   16.4   27.7   9.32  .0721    116    1    100.0    5 
 6/08/20   0:30   18.8   18.9   18.8    89   17.0   8.0     W   0.67  13.0     W   18.5   19.5   19.2  1014.2  0.00  0.00   0.000   0.002   27.4    51   16.4   27.7   9.32  .0721    118    1    100.0    5 
 6/08/20   0:35   18.9   18.9   18.8    90   17.2   7.0   WSW   0.58  12.0    SW   18.9   19.6   19.6  1014.3  0.00  0.00   0.000   0.002   27.4    51   16.4   27.7   9.32  .0721    117    1    100.0    5 
 6/08/20   0:40   18.8   18.9   18.8    90   17.2   6.0   WSW   0.50  11.0    SW   18.8   19.6   19.6  1014.3  0.00  0.00   0.000   0.002   27.5    51   16.5   27.8   9.32  .0721    117    1    100.0    5 
 6/08/20   0:45   18.8   18.8   18.8    91   17.3   7.0   WSW   0.58  12.0     W   18.8   19.6   19.6  1014.3  0.00  0.00   0.000   0.002   27.5    51   16.5   27.8   9.32  .0721    115    1    100.0    5 
 6/08/20   0:50   18.8   18.8   18.8    91   17.3   7.0   WSW   0.58  12.0    SW   18.8   19.5   19.5  1014.4  0.00  0.00   0.000   0.002   27.5    51   16.5   27.8   9.32  .0721    117    1    100.0    5 
 6/08/20   0:55   18.8   18.8   18.8    91   17.3   6.0     W   0.50  12.0    SW   18.8   19.5   19.5  1014.3  0.00  0.00   0.000   0.002   27.5    51   16.5   27.8   9.32  .0721    117    1    100.0    5 
 6/08/20   1:00   18.7   18.8   18.7    91   17.2   6.0     W   0.50  10.0     W   18.7   19.3   19.3  1014.3  0.00  0.00   0.000   0.001   27.5    51   16.5   27.8   9.32  .0721    116    1    100.0    5 
 6/08/20   1:05   18.7   18.8   18.7    91   17.2   5.0     W   0.42  11.0     W   18.7   19.4   19.4  1014.3  0.00  0.00   0.000   0.001   27.5    51   16.5   27.8   9.32  .0721    117    1    100.0    5 
 6/08/20   1:10   18.7   18.8   18.7    91   17.2   5.0     W   0.42   9.0     W   18.7   19.4   19.4  1014.3  0.00  0.00   0.000   0.001   27.5    51   16.5   27.8   9.32  .0721    117    1    100.0    5 
 6/08/20   1:15   18.7   18.8   18.7    91   17.2   6.0     W   0.50  11.0     W   18.7   19.4   19.4  1014.2  0.00  0.00   0.000   0.001   27.5    51   16.5   27.8   9.32  .0721    117    1    100.0    5 
 6/08/20   1:20   18.8   18.8   18.7    91   17.3   5.0     W   0.42   9.0     W   18.8   19.5   19.5  1014.3  0.00  0.00   0.000   0.002   27.5    51   16.5   27.8   9.32  .0721    117    1    100.0    5 
 6/08/20   1:25   18.8   18.8   18.8    90   17.2   5.0     W   0.42  10.0   WSW   18.8   19.6   19.6  1014.4  0.00  0.00   0.000   0.002   27.5    51   16.5   27.8   9.32  .0721    117    1    100.0    5 
 6/08/20   1:30   18.9   18.9   18.8    90   17.2   6.0   WSW   0.50  10.0   WSW   18.9   19.6   19.6  1014.2  0.00  0.00   0.000   0.002   27.5    51   16.5   27.8   9.32  .0721    117    1    100.0    5 
 6/08/20   1:35   18.9   18.9   18.9    90   17.3   7.0   WSW   0.58  10.0   WSW   18.9   19.7   19.7  1014.2  0.00  0.00   0.000   0.002   27.5    51   16.5   27.8   9.32  .0721    117    1    100.0    5 
 6/08/20   1:40   19.1   19.1   18.9    90   17.4   7.0    SW   0.58  11.0   WSW   19.1   19.8   19.8  1014.3  0.00  0.00   0.000   0.003   27.5    51   16.5   27.8   9.32  .0721    117    1    100.0    5 
 6/08/20   1:45   19.1   19.1   19.0    90   17.4   8.0    SW   0.67  11.0    SW   18.7   19.8   19.5  1014.3  0.00  0.00   0.000   0.003   27.5    51   16.5   27.8   9.32  .0721    116    1    100.0    5 
 6/08/20   1:50   19.0   19.1   19.0    90   17.3   9.0    SW   0.75  12.0    SW   18.3   19.7   19.0  1014.3  0.00  0.00   0.000   0.002   27.5    51   16.5   27.8   9.32  .0721    116    1    100.0    5 
 6/08/20   1:55   19.1   19.1   18.9    91   17.6  10.0    SW   0.83  12.0    SW   17.9   19.8   18.7  1014.4  0.00  0.00   0.000   0.003   27.5    51   16.5   27.8   9.32  .0721    117    1    100.0    5 
 6/08/20   2:00   19.1   19.1   19.1    91   17.6   9.0    SW   0.75  12.0    SW   18.4   19.9   19.2  1014.4  0.00  0.00   0.000   0.003   27.5    52   16.8   27.9   9.42  .0720    117    1    100.0    5 
 6/08/20   2:05   19.1   19.1   19.1    91   17.6   8.0   SSW   0.67  10.0    SW   18.7   19.8   19.5  1014.3  0.00  0.00   0.000   0.003   27.5    52   16.8   27.9   9.42  .0720    117    1    100.0    5 
 6/08/20   2:10   19.1   19.1   19.1    91   17.6   8.0    SW   0.67  11.0    SW   18.8   19.9   19.6  1014.3  0.00  0.00   0.000   0.003   27.5    52   16.8   27.9   9.42  .0720    117    1    100.0    5 
 6/08/20   2:15   19.1   19.1   19.1    91   17.6   9.0    SW   0.75  11.0    SW   18.4   19.9   19.2  1014.4  0.00  0.00   0.000   0.003   27.5    52   16.8   27.9   9.42  .0720    116    1    100.0    5 
 6/08/20   2:20   19.1   19.1   19.0    91   17.6  10.0   SSW   0.83  13.0    SW   17.9   19.8   18.7  1014.3  0.00  0.00   0.000   0.003   27.5    52   16.8   27.9   9.42  .0720    117    1    100.0    5 
 6/08/20   2:25   19.1   19.1   18.9    91   17.6  10.0   SSW   0.83  14.0    SW   17.9   19.8   18.7  1014.4  0.00  0.00   0.000   0.003   27.5    52   16.8   27.9   9.42  .0720    117    1    100.0    5 
 6/08/20   2:30   19.1   19.1   19.0    91   17.6   9.0    SW   0.75  12.0    SW   18.3   19.8   19.1  1014.3  0.00  0.00   0.000   0.003   27.5    52   16.8   27.9   9.42  .0720    115    1    100.0    5 
 6/08/20   2:35   19.1   19.1   19.0    91   17.6   9.0    SW   0.75  12.0    SW   18.3   19.8   19.1  1014.4  0.00  0.00   0.000   0.003   27.5    52   16.8   27.9   9.42  .0720    116    1    100.0    5 
 6/08/20   2:40   19.0   19.1   19.0    91   17.5   9.0   SSW   0.75  12.0    SW   18.3   19.8   19.1  1014.4  0.00  0.00   0.000   0.002   27.5    52   16.8   27.9   9.42  .0720    118    1    100.0    5 
 6/08/20   2:45   18.9   19.1   18.9    90   17.2   8.0   SSW   0.67  10.0   SSW   18.6   19.6   19.3  1014.3  0.00  0.00   0.000   0.002   27.5    52   16.8   27.9   9.42  .0720    117    1    100.0    5 
 6/08/20   2:50   19.0   19.1   18.9    91   17.5   9.0   SSW   0.75  11.0     S   18.3   19.8   19.1  1014.4  0.00  0.00   0.000   0.002   27.5    52   16.8   27.9   9.42  .0720    116    1    100.0    5 
 6/08/20   2:55   18.9   19.1   18.9    91   17.4  10.0     S   0.83  14.0     S   17.8   19.7   18.6  1014.4  0.00  0.00   0.000   0.002   27.5    52   16.8   27.9   9.42  .0720    117    1    100.0    5 
 6/08/20   3:00   18.9   18.9   18.8    91   17.4  10.0     S   0.83  12.0     S   17.8   19.7   18.6  1014.4  0.00  0.00   0.000   0.002   27.5    52   16.8   27.9   9.42  .0720    117    1    100.0    5 
 6/08/20   3:05   18.9   19.0   18.9    91   17.4   9.0   SSW   0.75  12.0     S   18.2   19.7   18.9  1014.3  0.00  0.00   0.000   0.002   27.5    52   16.8   27.9   9.42  .0720    115    1    100.0    5 
 6/08/20   3:10   18.9   18.9   18.9    91   17.4   8.0   SSW   0.67  11.0     S   18.6   19.7   19.3  1014.4  0.00  0.00   0.000   0.002   27.5    52   16.8   27.9   9.42  .0720    117    1    100.0    5 
 6/08/20   3:15   19.1   19.1   18.9    91   17.6   8.0   SSW   0.67  10.0    SW   18.7   19.8   19.5  1014.4  0.00  0.00   0.000   0.003   27.5    52   16.8   27.9   9.42  .0720    117    1    100.0    5 
 6/08/20   3:20   19.0   19.1   18.9    91   17.5   8.0   SSW   0.67  11.0    SW   18.7   19.8   19.4  1014.4  0.00  0.00   0.000   0.002   27.5    52   16.8   27.9   9.42  .0720    116    1    100.0    5 
 6/08/20   3:25   19.1   19.1   19.0    91   17.6   7.0   SSW   0.58  11.0     S   19.1   19.8   19.8  1014.4  0.00  0.00   0.000   0.003   27.5    52   16.8   27.9   9.42  .0720    117    1    100.0    5 
 6/08/20   3:30   18.9   19.1   18.9    91   17.4   9.0     S   0.75  13.0     S   18.2   19.7   18.9  1014.5  0.00  0.00   0.000   0.002   27.5    52   16.8   27.9   9.42  .0720    117    1    100.0    5 
 6/08/20   3:35   18.9   18.9   18.8    91   17.4  11.0     S   0.92  16.0     S   17.4   19.6   18.1  1014.5  0.00  0.00   0.000   0.002   27.5    52   16.8   27.9   9.42  .0720    115    1    100.0    5 
 6/08/20   3:40   18.9   18.9   18.8    91   17.4  11.0     S   0.92  14.0     S   17.4   19.6   18.1  1014.6  0.00  0.00   0.000   0.002   27.5    52   16.8   27.9   9.42  .0721    116    1    100.0    5 
 6/08/20   3:45   18.9   19.0   18.9    91   17.4  11.0     S   0.92  14.0     S   17.4   19.7   18.2  1014.6  0.00  0.00   0.000   0.002   27.5    52   16.8   27.9   9.42  .0721    117    1    100.0    5 
 6/08/20   3:50   18.9   18.9   18.8    90   17.2  11.0     S   0.92  15.0     S   17.4   19.6   18.1  1014.6  0.00  0.00   0.000   0.002   27.5    52   16.8   27.9   9.42  .0721    116    1    100.0    5 
 6/08/20   3:55   18.9   18.9   18.8    91   17.4  11.0     S   0.92  16.0     S   17.4   19.7   18.2  1014.6  0.00  0.00   0.000   0.002   27.5    52   16.8   27.9   9.42  .0721    117    1    100.0    5 
 6/08/20   4:00   18.9   19.0   18.9    91   17.4  10.0     S   0.83  13.0     S   17.8   19.7   18.6  1014.7  0.00  0.00   0.000   0.002   27.5    52   16.8   27.9   9.42  .0721    117    1    100.0    5 
 6/08/20   4:05   18.9   18.9   18.9    91   17.4  10.0   SSW   0.83  11.0     S   17.8   19.7   18.6  1014.7  0.00  0.00   0.000   0.002   27.5    52   16.8   27.9   9.42  .0721    117    1    100.0    5 
 6/08/20   4:10   18.9   19.0   18.9    91   17.4   9.0   SSW   0.75  11.0     S   18.2   19.7   18.9  1014.6  0.00  0.00   0.000   0.002   27.5    52   16.8   27.9   9.42  .0721    116    1    100.0    5 
 6/08/20   4:15   18.9   19.0   18.9    91   17.4   8.0   SSW   0.67  11.0     S   18.6   19.7   19.3  1014.6  0.00  0.00   0.000   0.002   27.5    52   16.8   27.9   9.42  .0721    116    1    100.0    5 
 6/08/20   4:20   19.0   19.1   18.9    91   17.5   9.0   SSW   0.75  12.0    SW   18.3   19.8   19.1  1014.7  0.00  0.00   0.000   0.002   27.5    52   16.8   27.9   9.42  .0721    116    1    100.0    5 
 6/08/20   4:25   19.0   19.1   18.9    91   17.5   9.0   SSW   0.75  12.0   SSW   18.3   19.8   19.1  1014.7  0.00  0.00   0.000   0.002   27.5    52   16.8   27.9   9.42  .0721    117    1    100.0    5 
 6/08/20   4:30   19.0   19.0   18.9    91   17.5   9.0   SSW   0.75  12.0    SW   18.3   19.8   19.1  1014.7  0.00  0.00   0.000   0.002   27.5    52   16.8   27.9   9.42  .0721    117    1    100.0    5 
 6/08/20   4:35   18.9   19.0   18.9    91   17.4   9.0   SSW   0.75  11.0    SW   18.2   19.7   18.9  1014.7  0.00  0.00   0.000   0.002   27.5    52   16.8   27.9   9.42  .0721    116    1    100.0    5 
 6/08/20   4:40   18.9   18.9   18.8    92   17.6   9.0   SSW   0.75  11.0     S   18.2   19.6   18.9  1014.8  0.00  0.00   0.000   0.002   27.5    52   16.8   27.9   9.42  .0721    116    1    100.0    5 
 6/08/20   4:45   18.9   18.9   18.8    92   17.6   9.0     S   0.75  12.0     S   18.2   19.6   18.9  1014.8  0.00  0.00   0.000   0.002   27.5    52   16.8   27.9   9.42  .0721    118    1    100.0    5 
 6/08/20   4:50   18.8   18.8   18.8    92   17.5  10.0     S   0.83  12.0     S   17.7   19.6   18.4  1014.9  0.00  0.00   0.000   0.002   27.5    52   16.8   27.9   9.42  .0721    116    1    100.0    5 
 6/08/20   4:55   18.8   18.8   18.8    91   17.3  10.0   SSW   0.83  13.0     S   17.7   19.5   18.4  1014.9  0.00  0.00   0.000   0.002   27.4    52   16.7   27.8   9.42  .0721    117    1    100.0    5 
 6/08/20   5:00   18.8   18.9   18.8    91   17.3  11.0     S   0.92  13.0     S   17.3   19.6   18.1  1014.8  0.00  0.00   0.000   0.002   27.4    52   16.7   27.8   9.42  .0721    117    1    100.0    5 
 6/08/20   5:05   18.8   18.9   18.8    92   17.5  10.0   SSW   0.83  12.0     S   17.7   19.6   18.4  1014.8  0.00  0.00   0.000   0.002   27.4    52   16.7   27.8   9.42  .0721    117    1    100.0    5 
 6/08/20   5:10   18.8   18.9   18.8    92   17.5  10.0   SSW   0.83  13.0   SSW   17.7   19.6   18.4  1014.8  0.00  0.00   0.000   0.002   27.4    52   16.7   27.8   9.42  .0721    117    1    100.0    5 
 6/08/20   5:15   18.9   18.9   18.8    92   17.6   9.0   SSW   0.75  11.0    SW   18.2   19.7   19.0  1014.8  0.00  0.00   0.000   0.002   27.4    52   16.7   27.8   9.42  .0721    117    1    100.0    5 
 6/08/20   5:20   18.9   18.9   18.9    92   17.6   9.0   SSW   0.75  12.0    SW   18.2   19.6   18.9  1014.9  0.00  0.00   0.000   0.002   27.4    52   16.7   27.8   9.42  .0721    117    1    100.0    5 
 6/08/20   5:25   18.9   18.9   18.8    92   17.6   9.0   SSW   0.75  12.0    SW   18.2   19.6   18.9  1014.9  0.00  0.00   0.000   0.002   27.4    52   16.7   27.8   9.42  .0721    117    1    100.0    5 
 6/08/20   5:30   18.9   18.9   18.8    92   17.6   9.0   SSW   0.75  11.0     S   18.2   19.6   18.9  1015.0  0.00  0.00   0.000   0.002   27.4    52   16.7   27.8   9.42  .0721    117    1    100.0    5 
 6/08/20   5:35   18.9   18.9   18.8    93   17.8   9.0   SSW   0.75  12.0     S   18.2   19.7   19.0  1015.1  0.00  0.00   0.000   0.002   27.4    52   16.7   27.8   9.42  .0721    116    1    100.0    5 
 6/08/20   5:40   18.9   18.9   18.9    93   17.8   9.0   SSW   0.75  11.0     S   18.2   19.7   19.0  1015.1  0.00  0.00   0.000   0.002   27.4    52   16.7   27.8   9.42  .0721    116    1    100.0    5 
 6/08/20   5:45   18.8   18.9   18.8    93   17.6   8.0   SSW   0.67   9.0   SSW   18.4   19.5   19.2  1015.1  0.00  0.00   0.000   0.002   27.4    52   16.7   27.8   9.42  .0721    117    1    100.0    5 
 6/08/20   5:50   18.8   18.8   18.8    93   17.6   8.0   SSW   0.67  10.0     S   18.4   19.5   19.2  1015.1  0.00  0.00   0.000   0.002   27.4    52   16.7   27.8   9.42  .0721    117    1    100.0    5 
 6/08/20   5:55   18.8   18.8   18.8    93   17.7   7.0   SSW   0.58   9.0     S   18.8   19.6   19.6  1015.2  0.00  0.00   0.000   0.002   27.4    52   16.7   27.8   9.42  .0721    115    1    100.0    5 
 6/08/20   6:00   18.9   18.9   18.8    93   17.7   8.0     S   0.67  10.0     S   18.6   19.7   19.3  1015.3  0.00  0.00   0.000   0.002   27.4    52   16.7   27.8   9.42  .0721    117    1    100.0    5 
 6/08/20   6:05   18.8   18.9   18.8    93   17.7   9.0     S   0.75  11.0     S   18.1   19.6   18.8  1015.2  0.00  0.00   0.000   0.002   27.4    52   16.7   27.8   9.42  .0721    117    1    100.0    5 
 6/08/20   6:10   18.7   18.8   18.7    93   17.6   9.0     S   0.75  11.0     S   18.0   19.4   18.7  1015.2  0.00  0.00   0.000   0.001   27.4    52   16.7   27.8   9.42  .0721    116    1    100.0    5 
 6/08/20   6:15   18.8   18.8   18.7    93   17.6   8.0     S   0.67  11.0     S   18.4   19.5   19.2  1015.4  0.00  0.00   0.000   0.002   27.4    52   16.7   27.8   9.42  .0721    116    1    100.0    5 
 6/08/20   6:20   18.8   18.8   18.8    93   17.6   9.0     S   0.75  12.0     S   18.1   19.5   18.8  1015.4  0.00  0.00   0.000   0.002   27.4    52   16.7   27.8   9.42  .0721    117    1    100.0    5 
 6/08/20   6:25   18.8   18.8   18.8    93   17.7   9.0     S   0.75  12.0     S   18.1   19.6   18.8  1015.4  0.00  0.00   0.000   0.002   27.4    52   16.7   27.8   9.42  .0721    117    1    100.0    5 
 6/08/20   6:30   18.7   18.8   18.7    93   17.6   9.0     S   0.75  12.0     S   18.0   19.4   18.7  1015.4  0.00  0.00   0.000   0.001   27.4    52   16.7   27.8   9.42  .0721    117    1    100.0    5 
 6/08/20   6:35   18.7   18.8   18.7    92   17.3   9.0     S   0.75  13.0     S   17.9   19.3   18.6  1015.5  0.00  0.00   0.000   0.001   27.4    52   16.7   27.8   9.42  .0721    116    1    100.0    5 
 6/08/20   6:40   18.6   18.7   18.6    92   17.3  11.0     S   0.92  13.0     S   17.1   19.3   17.7  1015.5  0.00  0.00   0.000   0.001   27.4    52   16.7   27.8   9.42  .0721    117    1    100.0    5 
 6/08/20   6:45   18.7   18.7   18.6    91   17.2  10.0     S   0.83  13.0     S   17.5   19.3   18.2  1015.6  0.00  0.00   0.000   0.001   27.4    52   16.7   27.8   9.42  .0721    116    1    100.0    5 
 6/08/20   6:50   18.8   18.8   18.7    91   17.3  11.0     S   0.92  14.0     S   17.3   19.5   18.0  1015.6  0.00  0.00   0.000   0.002   27.4    52   16.7   27.8   9.42  .0721    118    1    100.0    5 
 6/08/20   6:55   18.8   18.8   18.7    90   17.1  12.0     S   1.00  16.0     S   16.9   19.4   17.6  1015.6  0.00  0.00   0.000   0.002   27.4    52   16.7   27.8   9.42  .0721    116    1    100.0    5 
 6/08/20   7:00   18.9   18.9   18.8    89   17.1  11.0     S   0.92  16.0     S   17.4   19.7   18.2  1015.6  0.00  0.00   0.000   0.002   27.4    52   16.7   27.8   9.42  .0721    117    1    100.0    5 
 6/08/20   7:05   18.9   18.9   18.8    89   17.1  12.0     S   1.00  15.0     S   17.1   19.7   17.8  1015.7  0.00  0.00   0.000   0.002   27.4    52   16.7   27.8   9.42  .0721    117    1    100.0    5 
 6/08/20   7:10   19.0   19.0   18.9    90   17.3  10.0     S   0.83  14.0     S   17.9   19.7   18.6  1015.8  0.00  0.00   0.000   0.002   27.4    52   16.7   27.8   9.42  .0722    117    1    100.0    5 
 6/08/20   7:15   18.9   19.0   18.9    90   17.3   8.0   SSE   0.67  13.0     S   18.6   19.7   19.3  1015.8  0.00  0.00   0.000   0.002   27.4    52   16.7   27.8   9.42  .0722    115    1    100.0    5 
 6/08/20   7:20   18.9   19.0   18.9    90   17.2   8.0   SSE   0.67  13.0     S   18.6   19.6   19.3  1015.8  0.00  0.00   0.000   0.002   27.4    52   16.7   27.8   9.42  .0722    117    1    100.0    5 
 6/08/20   7:25   18.9   18.9   18.9    90   17.3   9.0   SSE   0.75  13.0     S   18.2   19.7   18.9  1015.8  0.00  0.00   0.000   0.002   27.4    52   16.7   27.8   9.42  .0722    117    1    100.0    5 
 6/08/20   7:30   18.9   18.9   18.9    90   17.3   9.0     S   0.75  13.0     S   18.2   19.7   18.9  1015.9  0.00  0.00   0.000   0.002   27.4    52   16.7   27.8   9.42  .0722    117    1    100.0    5 
 6/08/20   7:35   19.0   19.1   18.9    89   17.1   8.0   SSE   0.67  13.0     S   18.7   19.7   19.4  1015.9  0.00  0.00   0.000   0.002   27.4    52   16.7   27.8   9.42  .0722    116    1    100.0    5 
 6/08/20   7:40   19.1   19.1   19.1    89   17.2   8.0   SSE   0.67  12.0     S   18.7   19.8   19.4  1016.1  0.00  0.00   0.000   0.003   27.4    52   16.7   27.8   9.42  .0722    116    1    100.0    5 
 6/08/20   7:45   19.1   19.1   19.1    88   17.0   8.0   SSE   0.67  13.0     S   18.7   19.8   19.4  1016.0  0.00  0.00   0.000   0.003   27.4    52   16.7   27.8   9.42  .0722    117    1    100.0    5 
 6/08/20   7:50   19.2   19.2   19.1    88   17.1   7.0   SSE   0.58  10.0     S   19.2   19.9   19.9  1016.0  0.00  0.00   0.000   0.003   27.4    52   16.7   27.7   9.42  .0722    117    1    100.0    5 
 6/08/20   7:55   19.2   19.3   19.2    88   17.2   7.0   SSE   0.58  11.0     S   19.2   19.9   19.9  1016.1  0.00  0.00   0.000   0.003   27.4    52   16.7   27.8   9.42  .0722    117    1    100.0    5 
 6/08/20   8:00   19.2   19.3   19.2    88   17.2   7.0   SSE   0.58  10.0     S   19.2   19.9   19.9  1016.1  0.00  0.00   0.000   0.003   27.4    52   16.7   27.8   9.42  .0722    117    1    100.0    5 
 6/08/20   8:05   19.4   19.4   19.2    88   17.3   7.0   SSE   0.58  10.0   SSE   19.4   20.2   20.2  1016.1  0.00  0.00   0.000   0.004   27.4    52   16.7   27.7   9.42  .0722    116    1    100.0    5 
 6/08/20   8:10   19.7   19.7   19.4    88   17.6   6.0   SSE   0.50   9.0   SSE   19.7   20.5   20.5  1016.1  0.00  0.00   0.000   0.005   27.4    52   16.7   27.8   9.42  .0722    117    1    100.0    5 
 6/08/20   8:15   19.8   19.8   19.7    88   17.8   7.0   SSE   0.58  10.0    SE   19.8   20.7   20.7  1016.1  0.00  0.00   0.000   0.005   27.4    52   16.7   27.7   9.42  .0722    117    1    100.0    5 
 6/08/20   8:20   19.8   19.9   19.8    87   17.6   7.0   SSE   0.58  10.0     S   19.8   20.6   20.6  1016.2  0.00  0.00   0.000   0.005   27.4    52   16.7   27.7   9.42  .0722    117    1    100.0    5 
 6/08/20   8:25   19.8   19.8   19.8    87   17.6   6.0   SSE   0.50   8.0   SSE   19.8   20.6   20.6  1016.2  0.00  0.00   0.000   0.005   27.4    52   16.7   27.7   9.42  .0722    117    1    100.0    5 
 6/08/20   8:30   19.7   19.8   19.7    87   17.5   7.0   SSE   0.58   9.0     S   19.7   20.6   20.6  1016.2  0.00  0.00   0.000   0.005   27.4    52   16.7   27.7   9.42  .0722    116    1    100.0    5 
 6/08/20   8:35   19.7   19.8   19.7    87   17.5   7.0   SSE   0.58  11.0     S   19.7   20.6   20.6  1016.4  0.00  0.00   0.000   0.005   27.4    52   16.7   27.7   9.42  .0722    116    1    100.0    5 
 6/08/20   8:40   19.6   19.7   19.6    87   17.4   7.0   SSE   0.58  13.0     S   19.6   20.4   20.4  1016.4  0.00  0.00   0.000   0.004   27.4    52   16.7   27.7   9.42  .0722    117    1    100.0    5 
 6/08/20   8:45   19.7   19.7   19.6    88   17.6   6.0   SSE   0.50   9.0     S   19.7   20.5   20.5  1016.4  0.00  0.00   0.000   0.005   27.4    52   16.7   27.7   9.42  .0722    117    1    100.0    5 
 6/08/20   8:50   19.8   19.8   19.7    87   17.6   6.0   SSE   0.50   9.0     E   19.8   20.7   20.7  1016.5  0.00  0.00   0.000   0.005   27.4    52   16.7   27.7   9.42  .0722    117    1    100.0    5 
 6/08/20   8:55   19.8   19.8   19.8    86   17.4   6.0   SSE   0.50  10.0    SE   19.8   20.7   20.7  1016.4  0.00  0.00   0.000   0.005   27.4    52   16.7   27.7   9.42  .0722    118    1    100.0    5 
 6/08/20   9:00   19.8   19.9   19.8    87   17.6   6.0   SSE   0.50   9.0   SSE   19.8   20.7   20.7  1016.5  0.00  0.00   0.000   0.005   27.4    52   16.7   27.7   9.42  .0722    117    1    100.0    5 
 6/08/20   9:05   19.9   19.9   19.8    86   17.5   6.0   SSE   0.50   9.0   ESE   19.9   20.7   20.7  1016.5  0.00  0.00   0.000   0.005   27.4    52   16.7   27.7   9.42  .0722    117    1    100.0    5 
 6/08/20   9:10   20.1   20.1   19.9    85   17.5   5.0   SSE   0.42   8.0    SE   20.1   20.9   20.9  1016.6  0.00  0.00   0.000   0.006   27.4    52   16.7   27.7   9.42  .0722    117    1    100.0    5 
 6/08/20   9:15   20.2   20.2   20.0    86   17.8   5.0   SSE   0.42   8.0   SSE   20.2   21.2   21.2  1016.6  0.00  0.00   0.000   0.007   27.4    52   16.7   27.7   9.42  .0722    117    1    100.0    5 
 6/08/20   9:20   20.1   20.2   20.0    85   17.5   5.0   SSE   0.42   7.0    SE   20.1   20.9   20.9  1016.7  0.00  0.00   0.000   0.006   27.4    52   16.7   27.7   9.42  .0722    117    1    100.0    5 
 6/08/20   9:25   20.2   20.2   20.1    85   17.6   6.0   SSE   0.50   9.0     S   20.2   21.1   21.1  1016.7  0.00  0.00   0.000   0.006   27.4    52   16.7   27.7   9.42  .0722    116    1    100.0    5 
 6/08/20   9:30   20.3   20.3   20.2    86   17.9   5.0   SSE   0.42   8.0     S   20.3   21.3   21.3  1016.7  0.00  0.00   0.000   0.007   27.4    52   16.7   27.7   9.42  .0722    117    1    100.0    5 
 6/08/20   9:35   20.3   20.4   20.3    84   17.5   6.0   SSE   0.50  10.0     S   20.3   21.2   21.2  1016.7  0.00  0.00   0.000   0.007   27.4    52   16.7   27.7   9.42  .0722    117    1    100.0    5 
 6/08/20   9:40   20.3   20.3   20.2    86   17.9   5.0   SSE   0.42   8.0     S   20.3   21.2   21.2  1016.8  0.00  0.00   0.000   0.007   27.4    52   16.7   27.7   9.42  .0722    117    1    100.0    5 
 6/08/20   9:45   20.5   20.5   20.3    84   17.7   6.0   SSE   0.50   8.0     S   20.5   21.4   21.4  1016.8  0.00  0.00   0.000   0.008   27.4    52   16.7   27.7   9.42  .0722    117    1    100.0    5 
 6/08/20   9:50   20.6   20.7   20.5    83   17.6   6.0   SSE   0.50   8.0    SE   20.6   21.5   21.5  1016.7  0.00  0.00   0.000   0.008   27.4    52   16.7   27.7   9.42  .0722    117    1    100.0    5 
 6/08/20   9:55   20.6   20.6   20.6    84   17.8   5.0   SSE   0.42   8.0    SE   20.6   21.6   21.6  1016.8  0.00  0.00   0.000   0.008   27.4    53   17.0   27.8   9.62  .0722    117    1    100.0    5 
 6/08/20  10:00   20.7   20.8   20.6    83   17.7   5.0   SSE   0.42   9.0   ESE   20.7   21.6   21.6  1016.8  0.00  0.00   0.000   0.008   27.4    53   17.0   27.8   9.62  .0722    117    1    100.0    5 
 6/08/20  10:05   20.6   20.8   20.6    84   17.8   5.0   SSE   0.42   8.0    SE   20.6   21.6   21.6  1016.9  0.00  0.00   0.000   0.008   27.4    53   17.0   27.8   9.62  .0722    116    1    100.0    5 
 6/08/20  10:10   20.6   20.7   20.6    83   17.6   5.0   SSE   0.42   9.0     S   20.6   21.5   21.5  1016.9  0.00  0.00   0.000   0.008   27.4    53   17.0   27.8   9.62  .0722    117    1    100.0    5 
 6/08/20  10:15   20.6   20.6   20.6    84   17.8   5.0   SSE   0.42   8.0     S   20.6   21.6   21.6  1016.9  0.00  0.00   0.000   0.008   27.4    53   17.0   27.9   9.62  .0722    115    1    100.0    5 
 6/08/20  10:20   20.8   20.8   20.6    83   17.8   5.0   SSE   0.42   9.0     S   20.8   21.6   21.6  1016.9  0.00  0.00   0.000   0.008   27.4    53   17.0   27.9   9.62  .0722    117    1    100.0    5 
 6/08/20  10:25   20.6   20.7   20.6    82   17.4   5.0   SSE   0.42   7.0     S   20.6   21.5   21.5  1016.9  0.00  0.00   0.000   0.008   27.4    53   17.0   27.9   9.62  .0722    117    1    100.0    5 
 6/08/20  10:30   20.9   20.9   20.6    83   17.9   5.0   SSE   0.42   7.0     S   20.9   21.7   21.7  1016.9  0.00  0.00   0.000   0.009   27.5    53   17.1   28.0   9.62  .0722    116    1    100.0    5 
 6/08/20  10:35   20.9   21.0   20.9    81   17.5   5.0    SE   0.42   7.0    SE   20.9   21.6   21.6  1016.9  0.00  0.00   0.000   0.009   27.5    53   17.1   28.0   9.62  .0722    117    1    100.0    5 
 6/08/20  10:40   21.1   21.1   20.9    81   17.7   5.0    SE   0.42   7.0   ESE   21.1   21.7   21.7  1016.9  0.00  0.00   0.000   0.009   27.5    53   17.1   28.0   9.62  .0722    117    1    100.0    5 
 6/08/20  10:45   21.3   21.3   21.1    80   17.7   5.0   SSE   0.42   7.0   ESE   21.3   21.9   21.9  1017.0  0.00  0.00   0.000   0.010   27.5    53   17.1   28.0   9.62  .0722    117    1    100.0    5 
 6/08/20  10:50   21.1   21.3   21.1    81   17.7   7.0    SE   0.58   8.0    SE   21.1   21.7   21.7  1016.9  0.00  0.00   0.000   0.009   27.5    53   17.1   28.0   9.62  .0722    117    1    100.0    5 
 6/08/20  10:55   21.2   21.2   21.1    80   17.6   6.0   SSE   0.50   9.0    SE   21.2   21.8   21.8  1016.9  0.00  0.00   0.000   0.010   27.5    53   17.1   28.0   9.62  .0722    116    1    100.0    5 
 6/08/20  11:00   21.5   21.5   21.2    80   17.9   6.0    SE   0.50   8.0    SE   21.5   22.2   22.2  1017.0  0.00  0.00   0.000   0.011   27.5    53   17.1   28.0   9.62  .0722    116    1    100.0    5 
 6/08/20  11:05   21.7   21.7   21.5    79   17.9   6.0   SSE   0.50   8.0    SE   21.7   22.4   22.4  1017.1  0.00  0.00   0.000   0.012   27.6    53   17.1   28.1   9.62  .0722    118    1    100.0    5 
 6/08/20  11:10   21.5   21.7   21.5    79   17.7   7.0    SE   0.58   8.0    SE   21.5   22.1   22.1  1017.1  0.00  0.00   0.000   0.011   27.6    53   17.1   28.1   9.62  .0722    117    1    100.0    5 
 6/08/20  11:15   21.8   21.8   21.5    79   18.0   6.0   SSE   0.50   8.0    SE   21.8   22.4   22.4  1017.1  0.00  0.00   0.000   0.012   27.6    53   17.1   28.1   9.62  .0722    117    1    100.0    5 
 6/08/20  11:20   21.8   22.0   21.8    78   17.8   6.0    SE   0.50   8.0    SE   21.8   22.4   22.4  1017.1  0.00  0.00   0.000   0.012   27.6    53   17.1   28.1   9.62  .0722    117    1    100.0    5 
 6/08/20  11:25   21.6   21.8   21.6    79   17.8   6.0    SE   0.50   8.0    SE   21.6   22.2   22.2  1017.1  0.00  0.00   0.000   0.011   27.6    53   17.1   28.1   9.62  .0722    117    1    100.0    5 
 6/08/20  11:30   21.4   21.6   21.4    79   17.6   6.0    SE   0.50   8.0    SE   21.4   22.1   22.1  1017.1  0.00  0.00   0.000   0.011   27.6    53   17.1   28.1   9.62  .0722    116    1    100.0    5 
 6/08/20  11:35   21.4   21.4   21.3    81   18.0   6.0    SE   0.50   8.0   SSE   21.4   22.2   22.2  1017.2  0.00  0.00   0.000   0.011   27.6    53   17.2   28.1   9.62  .0722    117    1    100.0    5 
 6/08/20  11:40   21.4   21.6   21.4    81   18.0   7.0    SE   0.58   9.0    SE   21.4   22.1   22.1  1017.2  0.00  0.00   0.000   0.011   27.6    53   17.1   28.1   9.62  .0722    116    1    100.0    5 
 6/08/20  11:45   21.6   21.6   21.4    81   18.2   7.0    SE   0.58  10.0   ESE   21.6   22.4   22.4  1017.2  0.00  0.00   0.000   0.011   27.6    53   17.1   28.1   9.62  .0722    117    1    100.0    5 
 6/08/20  11:50   21.9   21.9   21.6    82   18.7   8.0    SE   0.67  11.0   ESE   21.7   22.8   22.5  1017.2  0.00  0.00   0.000   0.013   27.6    53   17.2   28.1   9.62  .0722    117    1    100.0    5 
 6/08/20  11:55   21.8   22.0   21.8    81   18.4   8.0    SE   0.67  10.0   ESE   21.6   22.6   22.3  1017.1  0.00  0.00   0.000   0.012   27.6    53   17.1   28.1   9.62  .0722    117    1    100.0    5 
 6/08/20  12:00   21.9   21.9   21.8    80   18.3   8.0    SE   0.67  10.0   ESE   21.6   22.6   22.3  1017.1  0.00  0.00   0.000   0.012   27.6    53   17.2   28.1   9.62  .0722    117    1    100.0    5 
 6/08/20  12:05   21.8   21.9   21.7    80   18.2   7.0    SE   0.58  10.0   ESE   21.8   22.5   22.5  1017.1  0.00  0.00   0.000   0.012   27.6    53   17.2   28.1   9.62  .0722    118    1    100.0    5 
 6/08/20  12:10   21.7   21.8   21.7    80   18.1   8.0    SE   0.67  10.0   ESE   21.4   22.4   22.2  1017.1  0.00  0.00   0.000   0.012   27.6    53   17.2   28.1   9.62  .0722    117    1    100.0    5 
 6/08/20  12:15   21.7   21.8   21.7    80   18.1   8.0    SE   0.67  10.0   ESE   21.4   22.4   22.2  1017.1  0.00  0.00   0.000   0.012   27.6    53   17.2   28.1   9.62  .0722    117    1    100.0    5 
 6/08/20  12:20   21.8   21.8   21.7    80   18.2   7.0    SE   0.58   9.0   ESE   21.8   22.6   22.6  1017.1  0.00  0.00   0.000   0.012   27.7    53   17.2   28.2   9.61  .0722    116    1    100.0    5 
 6/08/20  12:25   21.8   21.9   21.8    79   18.0   7.0    SE   0.58  10.0   ESE   21.8   22.4   22.4  1017.1  0.00  0.00   0.000   0.012   27.6    53   17.2   28.1   9.62  .0722    116    1    100.0    5 
 6/08/20  12:30   21.8   21.8   21.7    80   18.2   7.0    SE   0.58   9.0   ESE   21.8   22.5   22.5  1017.2  0.00  0.00   0.000   0.012   27.7    53   17.2   28.2   9.61  .0722    117    1    100.0    5 
 6/08/20  12:35   21.7   21.8   21.7    79   17.9   7.0    SE   0.58   9.0    SE   21.7   22.3   22.3  1017.1  0.00  0.00   0.000   0.012   27.7    53   17.2   28.2   9.61  .0722    117    1    100.0    5 
 6/08/20  12:40   21.8   21.8   21.6    80   18.2   6.0    SE   0.50   9.0    SE   21.8   22.5   22.5  1017.1  0.00  0.00   0.000   0.012   27.7    53   17.2   28.2   9.61  .0722    117    1    100.0    5 
 6/08/20  12:45   21.8   21.8   21.8    79   18.0   6.0    SE   0.50   8.0   ESE   21.8   22.5   22.5  1017.2  0.00  0.00   0.000   0.012   27.7    53   17.2   28.2   9.61  .0722    117    1    100.0    5 
 6/08/20  12:50   21.7   21.8   21.7    79   17.9   6.0    SE   0.50   8.0    SE   21.7   22.4   22.4  1017.2  0.00  0.00   0.000   0.012   27.7    53   17.2   28.2   9.61  .0722    117    1    100.0    5 
 6/08/20  12:55   21.7   21.7   21.7    79   17.9   6.0    SE   0.50   9.0   ESE   21.7   22.4   22.4  1017.1  0.00  0.00   0.000   0.012   27.7    53   17.2   28.2   9.61  .0722    117    1    100.0    5 
 6/08/20  13:00   22.1   22.1   21.8    78   18.0   6.0    SE   0.50   8.0    SE   22.1   22.7   22.7  1017.1  0.00  0.00   0.000   0.013   27.7    53   17.2   28.2   9.61  .0721    117    1    100.0    5 
 6/08/20  13:05   22.2   22.2   22.1    78   18.1   6.0    SE   0.50   9.0   ESE   22.2   22.8   22.8  1017.1  0.00  0.00   0.000   0.013   27.7    53   17.2   28.2   9.61  .0722    115    1    100.0    5 
 6/08/20  13:10   22.0   22.1   21.9    78   18.0   7.0    SE   0.58   9.0    SE   22.0   22.7   22.7  1017.1  0.00  0.00   0.000   0.013   27.7    53   17.3   28.3   9.61  .0721    118    1    100.0    5 
 6/08/20  13:15   21.9   22.0   21.8    78   17.9   7.0    SE   0.58   8.0    SE   21.9   22.6   22.6  1017.1  0.00  0.00   0.000   0.012   27.7    53   17.3   28.3   9.61  .0721    117    1    100.0    5 
 6/08/20  13:20   21.9   21.9   21.8    79   18.1   6.0    SE   0.50   8.0   ESE   21.9   22.7   22.7  1017.1  0.00  0.00   0.000   0.013   27.7    53   17.3   28.3   9.61  .0721    116    1    100.0    5 
 6/08/20  13:25   22.0   22.1   21.9    78   18.0   7.0    SE   0.58   9.0   ESE   22.0   22.7   22.7  1017.0  0.00  0.00   0.000   0.013   27.7    53   17.3   28.3   9.61  .0721    117    1    100.0    5 
 6/08/20  13:30   22.0   22.1   21.9    79   18.2   7.0    SE   0.58   9.0   ESE   22.0   22.7   22.7  1017.1  0.00  0.00   0.000   0.013   27.8    53   17.3   28.4   9.61  .0721    117    1    100.0    5 
 6/08/20  13:35   21.9   22.1   21.9    79   18.1   6.0    SE   0.50   8.0    SE   21.9   22.7   22.7  1017.0  0.00  0.00   0.000   0.013   27.8    53   17.3   28.4   9.61  .0721    116    1    100.0    5 
 6/08/20  13:40   22.1   22.2   21.9    78   18.1   7.0    SE   0.58   9.0   ESE   22.1   22.8   22.8  1017.0  0.00  0.00   0.000   0.013   27.8    53   17.4   28.4   9.61  .0721    117    1    100.0    5 
 6/08/20  13:45   22.2   22.3   22.1    78   18.1   7.0    SE   0.58   8.0    SE   22.2   22.8   22.8  1017.0  0.00  0.00   0.000   0.013   27.8    53   17.4   28.4   9.61  .0721    117    1    100.0    5 
 6/08/20  13:50   22.3   22.3   22.2    78   18.3   7.0    SE   0.58  10.0   ESE   22.3   23.0   23.0  1017.0  0.00  0.00   0.000   0.014   27.8    53   17.4   28.4   9.61  .0721    117    1    100.0    5 
 6/08/20  13:55   22.3   22.3   22.2    78   18.3   7.0    SE   0.58   9.0   ESE   22.3   23.0   23.0  1017.1  0.00  0.00   0.000   0.014   27.8    53   17.4   28.4   9.61  .0721    117    1    100.0    5 
 6/08/20  14:00   22.2   22.3   22.2    78   18.1   7.0    SE   0.58   9.0   ESE   22.2   22.8   22.8  1017.0  0.00  0.00   0.000   0.013   27.9    53   17.4   28.6   9.61  .0721    117    1    100.0    5 
 6/08/20  14:05   22.2   22.3   22.2    78   18.1   7.0    SE   0.58   9.0   ESE   22.2   22.8   22.8  1017.1  0.00  0.00   0.000   0.013   27.9    53   17.4   28.6   9.61  .0721    116    1    100.0    5 
 6/08/20  14:10   22.2   22.3   22.2    78   18.2   7.0    SE   0.58   8.0   ESE   22.2   22.9   22.9  1017.1  0.00  0.00   0.000   0.014   27.9    53   17.4   28.6   9.61  .0721    116    1    100.0    5 
 6/08/20  14:15   22.2   22.3   22.2    78   18.1   7.0    SE   0.58   9.0   ESE   22.2   22.8   22.8  1017.1  0.00  0.00   0.000   0.013   27.9    53   17.4   28.6   9.61  .0721    118    1    100.0    5 
 6/08/20  14:20   22.3   22.3   22.2    79   18.5   6.0    SE   0.50   8.0   ESE   22.3   23.1   23.1  1017.0  0.00  0.00   0.000   0.014   27.9    53   17.5   28.6   9.60  .0721    117    1    100.0    5 
 6/08/20  14:25   22.5   22.5   22.3    78   18.5   6.0    SE   0.50   8.0   ESE   22.5   23.3   23.3  1017.0  0.00  0.00   0.000   0.014   27.9    53   17.5   28.6   9.60  .0721    117    1    100.0    5 
 6/08/20  14:30   22.4   22.5   22.4    77   18.2   7.0   ESE   0.58   8.0   ESE   22.4   23.1   23.1  1017.0  0.00  0.00   0.000   0.014   27.9    53   17.5   28.6   9.60  .0721    117    1    100.0    5 
 6/08/20  14:35   22.4   22.4   22.4    77   18.2   6.0    SE   0.50   8.0   ESE   22.4   23.1   23.1  1017.0  0.00  0.00   0.000   0.014   28.0    53   17.5   28.7   9.60  .0720    117    1    100.0    5 
 6/08/20  14:40   22.4   22.4   22.3    77   18.2   6.0    SE   0.50   7.0    SE   22.4   23.1   23.1  1017.0  0.00  0.00   0.000   0.014   28.0    53   17.5   28.7   9.60  .0720    117    1    100.0    5 
 6/08/20  14:45   22.4   22.4   22.3    78   18.4   6.0    SE   0.50   7.0    SE   22.4   23.2   23.2  1016.9  0.00  0.00   0.000   0.014   28.0    53   17.5   28.7   9.60  .0720    117    1    100.0    5 
 6/08/20  14:50   22.5   22.5   22.4    77   18.3   6.0    SE   0.50   8.0   ESE   22.5   23.3   23.3  1016.9  0.00  0.00   0.000   0.014   28.1    53   17.6   28.8   9.60  .0720    117    1    100.0    5 
 6/08/20  14:55   22.6   22.6   22.4    77   18.4   6.0    SE   0.50   8.0   ESE   22.6   23.4   23.4  1016.9  0.00  0.00   0.000   0.015   28.1    53   17.6   28.8   9.60  .0720    117    1    100.0    5 
 6/08/20  15:00   22.5   22.7   22.5    76   18.1   6.0    SE   0.50   8.0   ESE   22.5   23.2   23.2  1016.9  0.00  0.00   0.000   0.014   28.1    53   17.6   28.8   9.60  .0720    117    1    100.0    5 
 6/08/20  15:05   22.7   22.7   22.5    76   18.3   5.0    SE   0.42   8.0   ESE   22.7   23.6   23.6  1016.8  0.00  0.00   0.000   0.015   28.1    53   17.6   28.8   9.60  .0720    116    1    100.0    5 
 6/08/20  15:10   23.1   23.1   22.8    75   18.4   5.0    SE   0.42   7.0   ESE   23.1   24.0   24.0  1016.8  0.00  0.00   0.000   0.016   28.1    53   17.6   28.9   9.60  .0720    116    1    100.0    5 
 6/08/20  15:15   22.9   23.1   22.8    75   18.2   5.0    SE   0.42   7.0   ESE   22.9   23.8   23.8  1016.8  0.00  0.00   0.000   0.016   28.1    53   17.6   28.9   9.60  .0720    117    1    100.0    5 
 6/08/20  15:20   22.9   22.9   22.9    75   18.3   5.0    SE   0.42   7.0   ESE   22.9   23.8   23.8  1016.8  0.00  0.00   0.000   0.016   28.1    53   17.6   28.9   9.60  .0720    116    1    100.0    5 
 6/08/20  15:25   22.7   22.9   22.7    75   18.0   5.0    SE   0.42   7.0   ESE   22.7   23.4   23.4  1016.8  0.00  0.00   0.000   0.015   28.1    53   17.6   28.9   9.60  .0720    117    1    100.0    5 
 6/08/20  15:30   22.9   22.9   22.6    75   18.2   5.0   ESE   0.42   7.0   ESE   22.9   23.8   23.8  1016.8  0.00  0.00   0.000   0.016   28.2    53   17.7   29.0   9.60  .0720    115    1    100.0    5 
 6/08/20  15:35   22.8   22.9   22.8    76   18.4   5.0    SE   0.42   7.0   ESE   22.8   23.7   23.7  1016.8  0.00  0.00   0.000   0.016   28.2    53   17.7   29.0   9.60  .0720    117    1    100.0    5 
 6/08/20  15:40   22.8   22.8   22.7    76   18.3   5.0    SE   0.42   7.0   ESE   22.8   23.7   23.7  1016.7  0.00  0.00   0.000   0.015   28.2    53   17.7   29.1   9.59  .0719    117    1    100.0    5 
 6/08/20  15:45   22.9   22.9   22.8    76   18.4   5.0    SE   0.42   7.0   ESE   22.9   23.8   23.8  1016.7  0.00  0.00   0.000   0.016   28.2    53   17.7   29.1   9.59  .0719    115    1    100.0    5 
 6/08/20  15:50   23.1   23.1   22.9    76   18.6   5.0    SE   0.42   7.0   ESE   23.1   24.1   24.1  1016.7  0.00  0.00   0.000   0.017   28.2    53   17.7   29.1   9.59  .0719    117    1    100.0    5 
 6/08/20  15:55   23.2   23.2   23.1    75   18.5   5.0    SE   0.42   7.0   ESE   23.2   24.2   24.2  1016.7  0.00  0.00   0.000   0.017   28.3    53   17.8   29.2   9.59  .0719    117    1    100.0    5 
 6/08/20  16:00   23.2   23.2   23.2    75   18.5   5.0    SE   0.42   7.0   ESE   23.2   24.2   24.2  1016.7  0.00  0.00   0.000   0.017   28.3    53   17.8   29.2   9.59  .0719    117    1    100.0    5 
 6/08/20  16:05   23.2   23.2   23.1    75   18.5   4.0    SE   0.33   7.0     E   23.2   24.2   24.2  1016.6  0.00  0.00   0.000   0.017   28.3    53   17.8   29.2   9.59  .0719    117    1    100.0    5 
 6/08/20  16:10   23.2   23.2   23.2    75   18.5   4.0    SE   0.33   5.0   ESE   23.2   24.2   24.2  1016.6  0.00  0.00   0.000   0.017   28.3    53   17.8   29.2   9.59  .0719    115    1    100.0    5 
 6/08/20  16:15   23.2   23.3   23.2    76   18.7   4.0    SE   0.33   5.0    SE   23.2   24.2   24.2  1016.6  0.00  0.00   0.000   0.017   28.3    53   17.8   29.2   9.59  .0719    116    1    100.0    5 
 6/08/20  16:20   23.1   23.2   23.1    75   18.4   4.0    SE   0.33   5.0   ESE   23.1   24.0   24.0  1016.6  0.00  0.00   0.000   0.016   28.3    53   17.8   29.2   9.59  .0719    118    1    100.0    5 
 6/08/20  16:25   22.9   23.1   22.9    76   18.5   5.0    SE   0.42   7.0   ESE   22.9   23.9   23.9  1016.5  0.00  0.00   0.000   0.016   28.3    53   17.8   29.2   9.59  .0719    117    1    100.0    5 
 6/08/20  16:30   22.9   23.1   22.8    76   18.4   4.0    SE   0.33   6.0    SE   22.9   23.8   23.8  1016.5  0.00  0.00   0.000   0.016   28.4    53   17.9   29.3   9.59  .0719    117    1    100.0    5 
 6/08/20  16:35   22.9   22.9   22.8    76   18.5   4.0    SE   0.33   5.0    SE   22.9   23.9   23.9  1016.5  0.00  0.00   0.000   0.016   28.4    53   17.9   29.3   9.59  .0719    117    1    100.0    5 
 6/08/20  16:40   22.9   22.9   22.8    77   18.6   4.0    SE   0.33   5.0    SE   22.9   23.8   23.8  1016.4  0.00  0.00   0.000   0.016   28.4    53   17.9   29.3   9.59  .0719    117    1    100.0    5 
 6/08/20  16:45   23.0   23.1   22.9    76   18.5   3.0    SE   0.25   5.0    SE   23.0   23.9   23.9  1016.4  0.00  0.00   0.000   0.016   28.4    53   17.9   29.3   9.59  .0719    117    1    100.0    5 
 6/08/20  16:50   23.1   23.1   22.9    75   18.4   3.0    SE   0.25   5.0    SE   23.1   24.0   24.0  1016.4  0.00  0.00   0.000   0.016   28.4    53   17.9   29.3   9.59  .0719    116    1    100.0    5 
 6/08/20  16:55   22.9   23.1   22.9    74   18.1   3.0    SE   0.25   4.0   SSE   22.9   23.8   23.8  1016.4  0.00  0.00   0.000   0.016   28.4    53   17.9   29.3   9.59  .0719    117    1    100.0    5 
 6/08/20  17:00   23.4   23.4   23.0    73   18.3   2.0   SSE   0.17   3.0     S   23.4   24.4   24.4  1016.3  0.00  0.00   0.000   0.018   28.4    53   17.9   29.4   9.59  .0718    116    1    100.0    5 
 6/08/20  17:05   23.3   23.4   23.2    73   18.2   3.0   SSE   0.25   3.0   SSE   23.3   24.2   24.2  1016.3  0.00  0.00   0.000   0.017   28.4    52   17.6   29.3   9.39  .0719    117    1    100.0    5 
 6/08/20  17:10   23.2   23.2   23.1    73   18.1   3.0   SSE   0.25   4.0   SSE   23.2   24.1   24.1  1016.3  0.00  0.00   0.000   0.017   28.4    52   17.6   29.3   9.39  .0719    117    1    100.0    5 
 6/08/20  17:15   23.2   23.2   23.1    73   18.1   3.0   SSE   0.25   4.0   SSE   23.2   24.1   24.1  1016.2  0.00  0.00   0.000   0.017   28.4    52   17.6   29.3   9.39  .0719    117    1    100.0    5 
 6/08/20  17:20   23.1   23.2   23.1    73   18.0   3.0   SSE   0.25   4.0     S   23.1   23.9   23.9  1016.2  0.00  0.00   0.000   0.016   28.4    52   17.6   29.3   9.39  .0719    118    1    100.0    5 
 6/08/20  17:25   23.3   23.3   23.1    73   18.2   3.0     S   0.25   4.0     S   23.3   24.2   24.2  1016.1  0.00  0.00   0.000   0.017   28.4    52   17.6   29.3   9.39  .0719    117    1    100.0    5 
 6/08/20  17:30   23.3   23.3   23.3    73   18.2   3.0     S   0.25   4.0     S   23.3   24.2   24.2  1016.2  0.00  0.00   0.000   0.017   28.5    52   17.7   29.4   9.38  .0718    116    1    100.0    5 
 6/08/20  17:35   23.3   23.3   23.3    73   18.2   3.0     S   0.25   4.0     S   23.3   24.3   24.3  1016.2  0.00  0.00   0.000   0.017   28.5    52   17.7   29.4   9.38  .0718    116    1    100.0    5 
 6/08/20  17:40   23.4   23.4   23.3    73   18.3   3.0     S   0.25   4.0     S   23.4   24.4   24.4  1016.2  0.00  0.00   0.000   0.018   28.5    52   17.7   29.4   9.38  .0718    116    1    100.0    5 
 6/08/20  17:45   23.3   23.4   23.3    72   17.9   3.0   SSE   0.25   4.0   SSE   23.3   24.2   24.2  1016.2  0.00  0.00   0.000   0.017   28.5    52   17.7   29.4   9.38  .0718    116    1    100.0    5 
 6/08/20  17:50   23.2   23.3   23.1    73   18.1   3.0   SSE   0.25   4.0   SSE   23.2   24.1   24.1  1016.1  0.00  0.00   0.000   0.017   28.6    52   17.7   29.5   9.38  .0718    117    1    100.0    5 
 6/08/20  17:55   23.1   23.2   23.1    74   18.2   2.0   SSE   0.17   3.0   SSE   23.1   23.9   23.9  1016.1  0.00  0.00   0.000   0.016   28.6    52   17.7   29.5   9.38  .0718    116    1    100.0    5 
 6/08/20  18:00   23.1   23.1   23.1    75   18.4   3.0   SSE   0.25   4.0   SSE   23.1   24.0   24.0  1016.1  0.00  0.00   0.000   0.016   28.6    52   17.7   29.5   9.38  .0718    116    1    100.0    5 
 6/08/20  18:05   22.9   23.1   22.9    75   18.3   2.0   SSE   0.17   4.0    SE   22.9   23.8   23.8  1016.1  0.00  0.00   0.000   0.016   28.6    52   17.7   29.5   9.38  .0718    117    1    100.0    5 
 6/08/20  18:10   23.1   23.1   22.9    75   18.4   2.0   SSE   0.17   4.0   SSE   23.1   24.0   24.0  1016.1  0.00  0.00   0.000   0.016   28.6    52   17.7   29.5   9.38  .0718    117    1    100.0    5 
 6/08/20  18:15   23.1   23.1   23.0    74   18.2   2.0     S   0.17   4.0     S   23.1   23.9   23.9  1016.1  0.00  0.00   0.000   0.016   28.6    52   17.7   29.5   9.38  .0718    117    1    100.0    5 
 6/08/20  18:20   22.8   23.1   22.8    74   18.0   3.0   SSE   0.25   4.0     S   22.8   23.7   23.7  1016.1  0.00  0.00   0.000   0.016   28.6    52   17.7   29.5   9.38  .0718    117    1    100.0    5 
 6/08/20  18:25   22.8   22.8   22.8    75   18.1   2.0   SSE   0.17   4.0   SSE   22.8   23.6   23.6  1016.1  0.00  0.00   0.000   0.015   28.6    52   17.8   29.6   9.38  .0718    117    1    100.0    5 
 6/08/20  18:30   22.7   22.8   22.7    75   18.0   3.0     S   0.25   4.0   SSE   22.7   23.4   23.4  1016.1  0.00  0.00   0.000   0.015   28.6    52   17.7   29.5   9.38  .0718    117    1    100.0    5 
 6/08/20  18:35   22.7   22.7   22.6    76   18.2   3.0     S   0.25   4.0     S   22.7   23.5   23.5  1016.1  0.00  0.00   0.000   0.015   28.6    52   17.8   29.6   9.38  .0718    117    1    100.0    5 
 6/08/20  18:40   22.7   22.7   22.6    75   18.0   3.0     S   0.25   4.0     S   22.7   23.4   23.4  1016.1  0.00  0.00   0.000   0.015   28.6    52   17.8   29.6   9.38  .0718    117    1    100.0    5 
 6/08/20  18:45   22.6   22.7   22.6    75   17.9   2.0   SSE   0.17   4.0     S   22.6   23.3   23.3  1016.1  0.00  0.00   0.000   0.015   28.6    52   17.8   29.6   9.38  .0718    117    1    100.0    5 
 6/08/20  18:50   22.6   22.6   22.6    76   18.1   2.0     S   0.17   4.0     S   22.6   23.3   23.3  1016.1  0.00  0.00   0.000   0.015   28.6    52   17.8   29.6   9.38  .0718    117    1    100.0    5 
 6/08/20  18:55   22.5   22.6   22.5    76   18.1   2.0     S   0.17   3.0     S   22.5   23.2   23.2  1016.2  0.00  0.00   0.000   0.014   28.6    52   17.8   29.6   9.38  .0718    117    1    100.0    5 
 6/08/20  19:00   22.6   22.6   22.5    75   17.9   2.0     S   0.17   3.0     S   22.6   23.3   23.3  1016.2  0.00  0.00   0.000   0.015   28.6    52   17.8   29.6   9.38  .0718    117    1    100.0    5 
 6/08/20  19:05   22.5   22.6   22.4    75   17.8   2.0     S   0.17   3.0     S   22.5   23.2   23.2  1016.1  0.00  0.00   0.000   0.014   28.6    52   17.8   29.6   9.38  .0718    117    1    100.0    5 
 6/08/20  19:10   22.4   22.5   22.4    75   17.8   2.0   SSE   0.17   3.0     S   22.4   23.1   23.1  1016.1  0.00  0.00   0.000   0.014   28.6    52   17.8   29.6   9.38  .0718    117    1    100.0    5 
 6/08/20  19:15   22.5   22.5   22.4    74   17.6   2.0   SSE   0.17   3.0   SSE   22.5   23.2   23.2  1016.1  0.00  0.00   0.000   0.014   28.6    52   17.8   29.6   9.38  .0718    117    1    100.0    5 
 6/08/20  19:20   22.5   22.5   22.4    75   17.8   2.0   SSE   0.17   3.0   SSE   22.5   23.2   23.2  1016.1  0.00  0.00   0.000   0.014   28.6    52   17.8   29.6   9.38  .0718    116    1    100.0    5 
 6/08/20  19:25   22.5   22.6   22.5    74   17.6   2.0     S   0.17   3.0     S   22.5   23.2   23.2  1016.2  0.00  0.00   0.000   0.014   28.6    52   17.8   29.6   9.38  .0718    117    1    100.0    5 
 6/08/20  19:30   22.6   22.6   22.5    74   17.7   2.0     S   0.17   3.0     S   22.6   23.2   23.2  1016.3  0.00  0.00   0.000   0.015   28.6    52   17.8   29.6   9.38  .0718    117    1    100.0    5 
 6/08/20  19:35   22.5   22.6   22.5    75   17.8   2.0     S   0.17   3.0     S   22.5   23.2   23.2  1016.3  0.00  0.00   0.000   0.014   28.6    51   17.5   29.5   9.28  .0718    117    1    100.0    5 
 6/08/20  19:40   22.6   22.6   22.5    74   17.7   2.0     S   0.17   3.0     S   22.6   23.2   23.2  1016.3  0.00  0.00   0.000   0.015   28.6    52   17.8   29.6   9.38  .0718    115    1    100.0    5 
 6/08/20  19:45   22.6   22.6   22.6    74   17.7   2.0     S   0.17   3.0     S   22.6   23.2   23.2  1016.3  0.00  0.00   0.000   0.015   28.6    51   17.5   29.5   9.28  .0718    117    1    100.0    5 
 6/08/20  19:50   22.5   22.6   22.5    75   17.8   2.0     S   0.17   3.0     S   22.5   23.2   23.2  1016.3  0.00  0.00   0.000   0.014   28.6    51   17.5   29.5   9.28  .0718    117    1    100.0    5 
 6/08/20  19:55   22.4   22.6   22.4    75   17.8   2.0     S   0.17   3.0     S   22.4   23.1   23.1  1016.3  0.00  0.00   0.000   0.014   28.6    51   17.5   29.5   9.28  .0718    116    1    100.0    5 
 6/08/20  20:00   22.4   22.5   22.4    75   17.8   2.0     S   0.17   4.0     S   22.4   23.1   23.1  1016.3  0.00  0.00   0.000   0.014   28.6    51   17.5   29.5   9.28  .0718    117    1    100.0    5 
 6/08/20  20:05   22.3   22.4   22.3    76   17.9   3.0     S   0.25   4.0     S   22.3   23.0   23.0  1016.3  0.00  0.00   0.000   0.014   28.6    51   17.5   29.5   9.28  .0718    117    1    100.0    5 
 6/08/20  20:10   22.3   22.3   22.3    76   17.8   3.0   SSW   0.25   4.0   SSW   22.3   22.9   22.9  1016.3  0.00  0.00   0.000   0.014   28.6    51   17.5   29.5   9.28  .0718    116    1    100.0    5 
 6/08/20  20:15   22.1   22.3   22.1    76   17.7   3.0    SW   0.25   4.0    SW   22.1   22.7   22.7  1016.3  0.00  0.00   0.000   0.013   28.6    51   17.5   29.5   9.28  .0718    115    1    100.0    5 
 6/08/20  20:20   22.0   22.1   22.0    77   17.8   3.0    SW   0.25   4.0    SW   22.0   22.6   22.6  1016.4  0.00  0.00   0.000   0.013   28.6    51   17.5   29.5   9.28  .0718    117    1    100.0    5 
 6/08/20  20:25   21.9   22.0   21.9    76   17.5   2.0    SW   0.17   3.0    SW   21.9   22.5   22.5  1016.4  0.00  0.00   0.000   0.013   28.6    51   17.5   29.5   9.28  .0718    117    1    100.0    5 
 6/08/20  20:30   21.9   21.9   21.9    76   17.5   2.0    SW   0.17   4.0    SW   21.9   22.5   22.5  1016.4  0.00  0.00   0.000   0.013   28.6    51   17.5   29.5   9.28  .0719    118    1    100.0    5 
 6/08/20  20:35   21.9   21.9   21.9    75   17.3   3.0    SW   0.25   4.0    SW   21.9   22.4   22.4  1016.4  0.00  0.00   0.000   0.012   28.6    51   17.5   29.5   9.28  .0719    116    1    100.0    5 
 6/08/20  20:40   21.9   21.9   21.9    76   17.5   3.0    SW   0.25   4.0    SW   21.9   22.4   22.4  1016.4  0.00  0.00   0.000   0.012   28.6    51   17.5   29.5   9.28  .0719    117    1    100.0    5 
 6/08/20  20:45   21.8   21.9   21.8    76   17.4   2.0    SW   0.17   3.0    SW   21.8   22.4   22.4  1016.5  0.00  0.00   0.000   0.012   28.6    51   17.5   29.5   9.28  .0719    117    1    100.0    5 
 6/08/20  20:50   21.7   21.8   21.7    76   17.3   2.0    SW   0.17   3.0    SW   21.7   22.2   22.2  1016.5  0.00  0.00   0.000   0.012   28.6    51   17.5   29.5   9.28  .0719    116    1    100.0    5 
 6/08/20  20:55   21.7   21.8   21.7    76   17.3   2.0    SW   0.17   3.0    SW   21.7   22.2   22.2  1016.5  0.00  0.00   0.000   0.012   28.6    51   17.5   29.5   9.28  .0719    116    1    100.0    5 
 6/08/20  21:00   21.7   21.8   21.7    76   17.3   2.0    SW   0.17   2.0    SW   21.7   22.2   22.2  1016.6  0.00  0.00   0.000   0.012   28.6    51   17.5   29.5   9.28  .0719    117    1    100.0    5 
 6/08/20  21:05   21.7   21.8   21.7    76   17.3   2.0    SW   0.17   2.0    SW   21.7   22.2   22.2  1016.6  0.00  0.00   0.000   0.012   28.6    51   17.5   29.5   9.28  .0719    117    1    100.0    5 
 6/08/20  21:10   21.8   21.8   21.7    76   17.4   1.0    SW   0.08   2.0    SW   21.8   22.3   22.3  1016.6  0.00  0.00   0.000   0.012   28.6    51   17.5   29.5   9.28  .0719    117    1    100.0    5 
 6/08/20  21:15   21.8   21.8   21.7    77   17.6   1.0    SW   0.08   2.0    SW   21.8   22.3   22.3  1016.7  0.00  0.00   0.000   0.012   28.6    51   17.5   29.5   9.28  .0719    116    1    100.0    5 
 6/08/20  21:20   21.8   21.8   21.8    76   17.4   0.0    SW   0.00   1.0    SW   21.8   22.3   22.3  1016.8  0.00  0.00   0.000   0.012   28.6    51   17.5   29.5   9.28  .0719    116    1    100.0    5 
 6/08/20  21:25   21.7   21.8   21.7    76   17.3   0.0    SW   0.00   1.0    SW   21.7   22.2   22.2  1016.8  0.00  0.00   0.000   0.012   28.6    51   17.5   29.5   9.28  .0719    117    1    100.0    5 
 6/08/20  21:30   21.7   21.8   21.7    74   16.8   0.0   ---   0.00   0.0   ---   21.7   22.1   22.1  1016.8  0.00  0.00   0.000   0.012   28.6    51   17.5   29.5   9.28  .0719    117    1    100.0    5 
 6/08/20  21:35   21.6   21.7   21.6    75   17.0   0.0   ---   0.00   0.0   ---   21.6   22.1   22.1  1016.9  0.00  0.00   0.000   0.011   28.6    51   17.5   29.5   9.28  .0719    118    1    100.0    5 
 6/08/20  21:40   21.7   21.7   21.6    76   17.3   0.0   ---   0.00   0.0   ---   21.7   22.2   22.2  1016.9  0.00  0.00   0.000   0.012   28.6    51   17.5   29.5   9.28  .0719    117    1    100.0    5 
 6/08/20  21:45   21.6   21.7   21.6    75   17.0   0.0   ---   0.00   0.0   ---   21.6   22.1   22.1  1016.9  0.00  0.00   0.000   0.011   28.6    51   17.5   29.5   9.28  .0719    116    1    100.0    5 
 6/08/20  21:50   21.6   21.7   21.5    75   16.9   0.0   ---   0.00   0.0   ---   21.6   22.0   22.0  1016.9  0.00  0.00   0.000   0.011   28.6    51   17.5   29.5   9.28  .0719    115    1    100.0    5 
 6/08/20  21:55   21.5   21.6   21.4    74   16.7   0.0   ---   0.00   0.0   ---   21.5   21.9   21.9  1016.9  0.00  0.00   0.000   0.011   28.6    51   17.5   29.5   9.28  .0719    116    1    100.0    5 
 6/08/20  22:00   21.4   21.4   21.4    74   16.6   0.0   ---   0.00   0.0   ---   21.4   21.8   21.8  1016.9  0.00  0.00   0.000   0.011   28.6    51   17.5   29.5   9.28  .0719    117    1    100.0    5 
 6/08/20  22:05   21.4   21.4   21.4    73   16.4   0.0   ---   0.00   0.0   ---   21.4   21.7   21.7  1016.9  0.00  0.00   0.000   0.011   28.6    51   17.5   29.5   9.28  .0719    117    1    100.0    5 
 6/08/20  22:10   21.5   21.6   21.4    73   16.5   1.0    SW   0.08   2.0    SW   21.5   21.8   21.8  1017.0  0.00  0.00   0.000   0.011   28.6    51   17.5   29.5   9.28  .0719    117    1    100.0    5 
 6/08/20  22:15   21.7   21.7   21.5    76   17.3   2.0    SW   0.17   3.0    SW   21.7   22.2   22.2  1017.0  0.00  0.00   0.000   0.012   28.6    51   17.5   29.5   9.28  .0719    116    1    100.0    5 
 6/08/20  22:20   21.7   21.7   21.7    79   17.9   2.0    SE   0.17   3.0    SW   21.7   22.4   22.4  1017.0  0.00  0.00   0.000   0.012   28.6    51   17.5   29.5   9.28  .0719    117    1    100.0    5 
 6/08/20  22:25   21.7   21.7   21.7    79   17.9   2.0    SE   0.17   3.0    SE   21.7   22.3   22.3  1017.0  0.00  0.00   0.000   0.012   28.6    51   17.5   29.5   9.28  .0719    117    1    100.0    5 
 6/08/20  22:30   21.6   21.7   21.5    78   17.6   2.0    SE   0.17   3.0    SE   21.6   22.2   22.2  1017.0  0.00  0.00   0.000   0.011   28.6    51   17.5   29.5   9.28  .0719    116    1    100.0    5 
 6/08/20  22:35   21.4   21.6   21.4    79   17.6   2.0    SE   0.17   2.0    SE   21.4   22.1   22.1  1017.0  0.00  0.00   0.000   0.011   28.6    51   17.5   29.5   9.28  .0719    117    1    100.0    5 
 6/08/20  22:40   21.4   21.5   21.4    80   17.8   1.0    SE   0.08   2.0    SE   21.4   22.1   22.1  1017.0  0.00  0.00   0.000   0.011   28.6    52   17.8   29.6   9.38  .0719    118    1    100.0    5 
 6/08/20  22:45   21.3   21.5   21.3    79   17.5   0.0    SE   0.00   1.0    SE   21.3   21.9   21.9  1017.1  0.00  0.00   0.000   0.010   28.6    52   17.8   29.6   9.38  .0719    117    1    100.0    5 
 6/08/20  22:50   21.2   21.3   21.2    77   17.0   0.0    SE   0.00   1.0    SE   21.2   21.7   21.7  1017.1  0.00  0.00   0.000   0.010   28.6    52   17.8   29.6   9.38  .0719    117    1    100.0    5 
 6/08/20  22:55   21.2   21.3   21.2    78   17.2   1.0    SE   0.08   2.0    SE   21.2   21.7   21.7  1017.1  0.00  0.00   0.000   0.010   28.6    52   17.8   29.6   9.38  .0719    117    1    100.0    5 
 6/08/20  23:00   21.2   21.3   21.2    78   17.2   0.0    SE   0.00   1.0    SE   21.2   21.7   21.7  1017.2  0.00  0.00   0.000   0.010   28.6    52   17.8   29.6   9.38  .0719    116    1    100.0    5 
 6/08/20  23:05   21.2   21.2   21.2    78   17.2   0.0    SE   0.00   1.0    SE   21.2   21.7   21.7  1017.2  0.00  0.00   0.000   0.010   28.6    52   17.8   29.6   9.38  .0719    117    1    100.0    5 
 6/08/20  23:10   21.1   21.2   21.1    78   17.1   0.0    SE   0.00   1.0    SE   21.1   21.6   21.6  1017.1  0.00  0.00   0.000   0.010   28.6    52   17.8   29.6   9.38  .0719    117    1    100.0    5 
 6/08/20  23:15   20.9   21.1   20.9    76   16.6   0.0    SE   0.00   2.0    SE   20.9   21.4   21.4  1017.1  0.00  0.00   0.000   0.009   28.6    52   17.8   29.6   9.38  .0719    116    1    100.0    5 
 6/08/20  23:20   20.9   20.9   20.8    76   16.5   1.0    SE   0.08   2.0    SE   20.9   21.4   21.4  1017.1  0.00  0.00   0.000   0.009   28.6    52   17.8   29.6   9.38  .0719    117    1    100.0    5 
 6/08/20  23:25   20.8   20.9   20.8    76   16.4   1.0    SE   0.08   2.0    SE   20.8   21.3   21.3  1017.1  0.00  0.00   0.000   0.008   28.6    52   17.8   29.6   9.38  .0719    117    1    100.0    5 
 6/08/20  23:30   20.7   20.8   20.7    76   16.3   1.0    SE   0.08   2.0    SE   20.7   21.3   21.3  1017.1  0.00  0.00   0.000   0.008   28.6    52   17.8   29.6   9.38  .0719    117    1    100.0    5 
 6/08/20  23:35   20.7   20.7   20.7    76   16.3   1.0    SE   0.08   2.0    SE   20.7   21.2   21.2  1017.1  0.00  0.00   0.000   0.008   28.6    51   17.5   29.5   9.28  .0719    117    1    100.0    5 
 6/08/20  23:40   20.6   20.7   20.6    76   16.2   1.0    SE   0.08   2.0    SE   20.6   21.2   21.2  1017.1  0.00  0.00   0.000   0.008   28.6    51   17.5   29.5   9.28  .0719    118    1    100.0    5 
 6/08/20  23:45   20.6   20.6   20.6    76   16.2   1.0    SE   0.08   2.0    SE   20.6   21.2   21.2  1017.1  0.00  0.00   0.000   0.008   28.6    51   17.5   29.5   9.28  .0719    116    1    100.0    5 
 6/08/20  23:50   20.6   20.6   20.6    76   16.2   1.0    SE   0.08   2.0    SE   20.6   21.2   21.2  1017.1  0.00  0.00   0.000   0.008   28.6    51   17.5   29.5   9.28  .0719    117    1    100.0    5 
 6/08/20  23:55   20.5   20.6   20.5    75   15.9   1.0    SE   0.08   3.0    SE   20.5   21.1   21.1  1017.1  0.00  0.00   0.000   0.008   28.7    51   17.5   29.6   9.28  .0719    117    1    100.0    5 
 7/08/20  00:00   20.4   20.5   20.4    76   16.1   2.0    SE   0.17   3.0    SE   20.4   21.1   21.1  1017.2  0.00  0.00   0.000   0.007   28.7    51   17.5   29.6   9.28  .0719    117    1    100.0    5 
 7/08/20   0:05   20.4   20.4   20.4    76   16.0   2.0   NNE   0.17   3.0   NNE   20.4   21.0   21.0  1017.2  0.00  0.00   0.000   0.007   28.6    51   17.5   29.5   9.28  .0719    115    1    100.0    5 
 7/08/20   0:10   20.3   20.4   20.3    76   16.0   2.0   NNE   0.17   3.0   NNE   20.3   20.9   20.9  1017.2  0.00  0.00   0.000   0.007   28.7    51   17.5   29.6   9.28  .0719    115    1    100.0    5 
 7/08/20   0:15   20.3   20.3   20.3    76   15.9   2.0   NNE   0.17   3.0   NNE   20.3   20.8   20.8  1017.2  0.00  0.00   0.000   0.007   28.6    51   17.5   29.5   9.28  .0719    116    1    100.0    5 
 7/08/20   0:20   20.2   20.3   20.2    76   15.8   2.0   NNE   0.17   3.0   NNE   20.2   20.7   20.7  1017.1  0.00  0.00   0.000   0.006   28.7    51   17.5   29.6   9.28  .0719    116    1    100.0    5 
 7/08/20   0:25   20.1   20.2   20.1    76   15.7   2.0   NNE   0.17   3.0   NNE   20.1   20.7   20.7  1017.1  0.00  0.00   0.000   0.006   28.7    50   17.2   29.6   9.08  .0719    117    1    100.0    5 
 7/08/20   0:30   20.0   20.1   20.0    76   15.6   2.0   NNE   0.17   3.0   NNE   20.0   20.6   20.6  1017.0  0.00  0.00   0.000   0.006   28.7    50   17.3   29.6   9.08  .0719    117    1    100.0    5 
 7/08/20   0:35   19.9   20.1   19.9    77   15.8   2.0   NNE   0.17   3.0   NNE   19.9   20.5   20.5  1017.0  0.00  0.00   0.000   0.006   28.7    50   17.2   29.6   9.08  .0719    117    1    100.0    5 
 7/08/20   0:40   19.9   19.9   19.9    77   15.7   2.0   NNE   0.17   3.0   NNE   19.9   20.4   20.4  1017.0  0.00  0.00   0.000   0.005   28.7    50   17.2   29.6   9.08  .0719    117    1    100.0    5 
 7/08/20   0:45   19.8   19.9   19.8    77   15.7   2.0   NNE   0.17   3.0   NNE   19.8   20.4   20.4  1017.1  0.00  0.00   0.000   0.005   28.7    50   17.3   29.6   9.08  .0719    116    1    100.0    5 
 7/08/20   0:50   19.7   19.8   19.7    77   15.6   2.0   NNE   0.17   3.0   NNE   19.7   20.3   20.3  1017.0  0.00  0.00   0.000   0.005   28.7    50   17.2   29.6   9.08  .0719    116    1    100.0    5 
 7/08/20   0:55   19.7   19.7   19.7    78   15.7   2.0   NNE   0.17   3.0   NNE   19.7   20.2   20.2  1017.0  0.00  0.00   0.000   0.005   28.7    50   17.2   29.6   9.08  .0719    116    1    100.0    5 
 7/08/20   1:00   19.6   19.7   19.6    78   15.7   2.0   NNE   0.17   3.0   NNE   19.6   20.2   20.2  1017.0  0.00  0.00   0.000   0.004   28.7    50   17.2   29.6   9.08  .0719    117    1    100.0    5 
 7/08/20   1:05   19.6   19.6   19.6    78   15.6   2.0   NNE   0.17   3.0   NNE   19.6   20.1   20.1  1016.9  0.00  0.00   0.000   0.004   28.7    50   17.2   29.6   9.08  .0719    116    1    100.0    5 
 7/08/20   1:10   19.4   19.5   19.4    78   15.5   2.0   NNE   0.17   3.0   NNE   19.4   19.9   19.9  1016.9  0.00  0.00   0.000   0.004   28.7    49   17.0   29.6   8.88  .0719    118    1    100.0    5 
 7/08/20   1:15   19.3   19.4   19.3    78   15.4   2.0   NNE   0.17   3.0   NNE   19.3   19.8   19.8  1016.9  0.00  0.00   0.000   0.003   28.7    49   17.0   29.6   8.88  .0719    117    1    100.0    5 
 7/08/20   1:20   19.3   19.4   19.3    78   15.3   2.0   NNE   0.17   3.0   NNE   19.3   19.8   19.8  1016.9  0.00  0.00   0.000   0.003   28.7    49   17.0   29.6   8.88  .0719    117    1    100.0    5 
 7/08/20   1:25   19.2   19.3   19.2    78   15.3   2.0     N   0.17   3.0     N   19.2   19.7   19.7  1016.9  0.00  0.00   0.000   0.003   28.7    49   17.0   29.6   8.88  .0719    117    1    100.0    5 
 7/08/20   1:30   19.2   19.2   19.2    78   15.2   2.0     N   0.17   4.0     N   19.2   19.6   19.6  1016.9  0.00  0.00   0.000   0.003   28.7    49   17.0   29.6   8.88  .0719    117    1    100.0    5 
 7/08/20   1:35   19.1   19.2   19.1    78   15.2   2.0   NNW   0.17   3.0   NNW   19.1   19.6   19.6  1016.9  0.00  0.00   0.000   0.003   28.7    49   17.0   29.6   8.88  .0719    117    1    100.0    5 
 7/08/20   1:40   19.1   19.1   19.1    78   15.2   2.0   NNW   0.17   3.0   NNW   19.1   19.6   19.6  1016.8  0.00  0.00   0.000   0.003   28.7    49   17.0   29.6   8.88  .0719    117    1    100.0    5 
 7/08/20   1:45   19.1   19.1   19.0    78   15.1   2.0   NNW   0.17   3.0   NNW   19.1   19.5   19.5  1016.8  0.00  0.00   0.000   0.003   28.7    49   17.0   29.6   8.88  .0719    116    1    100.0    5 
 7/08/20   1:50   19.0   19.1   19.0    79   15.3   2.0   NNW   0.17   4.0   NNW   19.0   19.5   19.5  1016.8  0.00  0.00   0.000   0.002   28.7    49   17.0   29.6   8.88  .0719    117    1    100.0    5 
 7/08/20   1:55   18.9   19.0   18.9    78   15.0   3.0   NNW   0.25   4.0    NW   18.9   19.4   19.4  1016.8  0.00  0.00   0.000   0.002   28.7    49   17.0   29.6   8.88  .0719    117    1    100.0    5 
 7/08/20   2:00   18.9   18.9   18.9    78   15.0   3.0   NNW   0.25   4.0   NNW   18.9   19.3   19.3  1016.8  0.00  0.00   0.000   0.002   28.7    48   16.6   29.4   8.78  .0719    117    1    100.0    5 
 7/08/20   2:05   18.8   18.9   18.8    78   14.9   3.0   NNW   0.25   4.0   NNW   18.8   19.2   19.2  1016.8  0.00  0.00   0.000   0.002   28.7    48   16.6   29.4   8.78  .0719    116    1    100.0    5 
 7/08/20   2:10   18.8   18.8   18.8    78   14.9   3.0   NNW   0.25   5.0   NNW   18.8   19.2   19.2  1016.7  0.00  0.00   0.000   0.002   28.7    48   16.6   29.4   8.78  .0719    118    1    100.0    5 
 7/08/20   2:15   18.7   18.8   18.7    78   14.8   3.0   NNW   0.25   5.0   NNW   18.7   19.1   19.1  1016.7  0.00  0.00   0.000   0.001   28.7    48   16.6   29.4   8.78  .0719    116    1    100.0    5 
 7/08/20   2:20   18.7   18.7   18.6    78   14.8   3.0   NNW   0.25   5.0   NNW   18.7   19.1   19.1  1016.7  0.00  0.00   0.000   0.001   28.7    48   16.6   29.4   8.78  .0719    117    1    100.0    5 
 7/08/20   2:25   18.6   18.7   18.6    78   14.7   3.0   NNW   0.25   5.0     N   18.6   18.9   18.9  1016.6  0.00  0.00   0.000   0.001   28.7    48   16.6   29.4   8.78  .0719    117    1    100.0    5 
 7/08/20   2:30   18.6   18.7   18.6    78   14.7   3.0     N   0.25   4.0     N   18.6   18.9   18.9  1016.5  0.00  0.00   0.000   0.001   28.7    48   16.6   29.4   8.78  .0719    117    1    100.0    5 
 7/08/20   2:35   18.7   18.7   18.6    78   14.8   3.0   NNW   0.25   4.0   NNW   18.7   19.1   19.1  1016.5  0.00  0.00   0.000   0.001   28.7    48   16.6   29.4   8.78  .0719    117    1    100.0    5 
 7/08/20   2:40   18.7   18.7   18.6    77   14.6   4.0   NNW   0.33   4.0     N   18.7   19.0   19.0  1016.5  0.00  0.00   0.000   0.001   28.7    47   16.3   29.4   8.58  .0719    117    1    100.0    5 
 7/08/20   2:45   18.7   18.7   18.7    77   14.6   3.0   NNW   0.25   4.0   NNW   18.7   19.0   19.0  1016.5  0.00  0.00   0.000   0.001   28.7    47   16.2   29.3   8.58  .0720    116    1    100.0    5 
 7/08/20   2:50   18.7   18.7   18.7    77   14.6   3.0     N   0.25   5.0   NNW   18.7   19.0   19.0  1016.5  0.00  0.00   0.000   0.001   28.7    47   16.3   29.4   8.58  .0719    117    1    100.0    5 
 7/08/20   2:55   18.7   18.7   18.7    77   14.6   3.0     N   0.25   4.0     N   18.7   19.0   19.0  1016.4  0.00  0.00   0.000   0.001   28.7    47   16.3   29.4   8.58  .0719    117    1    100.0    5 
 7/08/20   3:00   18.7   18.7   18.7    77   14.6   3.0     N   0.25   4.0     N   18.7   19.1   19.1  1016.4  0.00  0.00   0.000   0.001   28.7    47   16.2   29.3   8.58  .0719    117    1    100.0    5 
 7/08/20   3:05   18.7   18.7   18.7    77   14.6   2.0     N   0.17   3.0     N   18.7   19.1   19.1  1016.4  0.00  0.00   0.000   0.001   28.7    47   16.2   29.3   8.58  .0719    117    1    100.0    5 
 7/08/20   3:10   18.7   18.7   18.7    76   14.4   3.0     N   0.25   4.0     N   18.7   19.0   19.0  1016.4  0.00  0.00   0.000   0.001   28.7    47   16.2   29.3   8.58  .0719    117    1    100.0    5 
 7/08/20   3:15   18.7   18.7   18.7    76   14.3   3.0   NNW   0.25   4.0   NNW   18.7   18.9   18.9  1016.5  0.00  0.00   0.000   0.001   28.7    47   16.2   29.3   8.58  .0720    118    1    100.0    5 
 7/08/20   3:20   18.7   18.7   18.7    76   14.4   3.0   NNW   0.25   5.0   NNW   18.7   19.0   19.0  1016.5  0.00  0.00   0.000   0.001   28.7    47   16.2   29.3   8.58  .0720    116    1    100.0    5 
 7/08/20   3:25   18.7   18.7   18.7    76   14.4   4.0   NNW   0.33   5.0   NNW   18.7   19.0   19.0  1016.4  0.00  0.00   0.000   0.001   28.7    47   16.3   29.4   8.58  .0719    117    1    100.0    5 
 7/08/20   3:30   18.8   18.8   18.7    76   14.5   4.0     N   0.33   5.0     N   18.8   19.1   19.1  1016.4  0.00  0.00   0.000   0.002   28.7    46   15.9   29.2   8.45  .0720    115    1    100.0    5 
 7/08/20   3:35   18.8   18.8   18.7    75   14.3   4.0   NNW   0.33   5.0   NNW   18.8   19.1   19.1  1016.4  0.00  0.00   0.000   0.002   28.7    46   15.9   29.2   8.45  .0720    117    1    100.0    5 
 7/08/20   3:40   18.8   18.8   18.8    75   14.3   4.0   NNW   0.33   5.0     N   18.8   19.1   19.1  1016.4  0.00  0.00   0.000   0.002   28.7    46   15.9   29.2   8.45  .0720    117    1    100.0    5 
 7/08/20   3:45   18.8   18.8   18.8    75   14.3   4.0   NNW   0.33   5.0   NNW   18.8   19.1   19.1  1016.4  0.00  0.00   0.000   0.002   28.7    46   15.9   29.2   8.45  .0720    117    1    100.0    5 
 7/08/20   3:50   18.8   18.8   18.8    75   14.3   3.0   NNW   0.25   4.0   NNW   18.8   19.1   19.1  1016.3  0.00  0.00   0.000   0.002   28.7    46   15.9   29.2   8.45  .0720    117    1    100.0    5 
 7/08/20   3:55   18.8   18.8   18.7    75   14.3   4.0   NNW   0.33   5.0   NNW   18.8   19.1   19.1  1016.4  0.00  0.00   0.000   0.002   28.7    46   15.9   29.2   8.45  .0720    117    1    100.0    5 
 7/08/20   4:00   18.8   18.8   18.8    75   14.3   4.0   NNW   0.33   5.0   NNW   18.8   19.1   19.1  1016.4  0.00  0.00   0.000   0.002   28.7    46   15.9   29.2   8.45  .0720    115    1    100.0    5 
 7/08/20   4:05   18.8   18.8   18.8    75   14.3   4.0   NNW   0.33   5.0   NNW   18.8   19.1   19.1  1016.4  0.00  0.00   0.000   0.002   28.7    46   15.9   29.2   8.45  .0720    116    1    100.0    5 
 7/08/20   4:10   18.8   18.8   18.8    75   14.3   4.0   NNW   0.33   5.0     N   18.8   19.1   19.1  1016.4  0.00  0.00   0.000   0.002   28.7    46   15.9   29.2   8.45  .0720    117    1    100.0    5 
 7/08/20   4:15   18.8   18.8   18.8    75   14.3   4.0   NNW   0.33   6.0     N   18.8   19.1   19.1  1016.4  0.00  0.00   0.000   0.002   28.6    46   15.9   29.1   8.45  .0720    117    1    100.0    5 
 7/08/20   4:20   18.8   18.8   18.8    75   14.3   4.0   NNW   0.33   5.0     N   18.8   19.1   19.1  1016.3  0.00  0.00   0.000   0.002   28.6    46   15.9   29.1   8.45  .0720    118    1    100.0    5 
 7/08/20   4:25   18.8   18.8   18.8    75   14.3   5.0   NNW   0.42   6.0   NNW   18.8   19.1   19.1  1016.4  0.00  0.00   0.000   0.002   28.6    45   15.5   29.1   8.28  .0720    115    1    100.0    5 
 7/08/20   4:30   18.8   18.8   18.8    75   14.3   5.0   NNW   0.42   6.0   NNW   18.8   19.1   19.1  1016.4  0.00  0.00   0.000   0.002   28.6    45   15.5   29.1   8.28  .0720    116    1    100.0    5 
 7/08/20   4:35   18.8   18.8   18.8    75   14.3   4.0   NNW   0.33   5.0     N   18.8   19.1   19.1  1016.4  0.00  0.00   0.000   0.002   28.6    45   15.5   29.1   8.28  .0720    117    1    100.0    5 
 7/08/20   4:40   18.8   18.8   18.8    75   14.3   4.0     N   0.33   5.0   NNW   18.8   19.1   19.1  1016.3  0.00  0.00   0.000   0.002   28.6    45   15.5   29.1   8.28  .0720    116    1    100.0    5 
 7/08/20   4:45   18.8   18.8   18.8    75   14.3   4.0     N   0.33   5.0     N   18.8   19.1   19.1  1016.3  0.00  0.00   0.000   0.002   28.6    45   15.5   29.1   8.28  .0720    117    1    100.0    5 
 7/08/20   4:50   18.8   18.8   18.8    75   14.3   4.0     N   0.33   5.0   NNW   18.8   19.1   19.1  1016.3  0.00  0.00   0.000   0.002   28.6    45   15.5   28.9   8.28  .0720    117    1    100.0    5 
 7/08/20   4:55   18.8   18.8   18.8    75   14.3   4.0     N   0.33   6.0   NNW   18.8   19.1   19.1  1016.3  0.00  0.00   0.000   0.002   28.6    45   15.5   28.9   8.28  .0720    117    1    100.0    5 
 7/08/20   5:00   18.8   18.8   18.8    75   14.3   5.0     N   0.42   6.0     N   18.8   19.1   19.1  1016.3  0.00  0.00   0.000   0.002   28.6    45   15.5   28.9   8.28  .0720    117    1    100.0    5 
 7/08/20   5:05   18.8   18.8   18.8    75   14.3   5.0     N   0.42   6.0     N   18.8   19.1   19.1  1016.2  0.00  0.00   0.000   0.002   28.6    45   15.5   28.9   8.28  .0720    117    1    100.0    5 
 7/08/20   5:10   18.8   18.8   18.8    75   14.3   5.0   NNW   0.42   7.0   NNW   18.8   19.1   19.1  1016.2  0.00  0.00   0.000   0.002   28.6    45   15.5   28.9   8.28  .0720    117    1    100.0    5 
 7/08/20   5:15   18.8   18.8   18.7    75   14.3   5.0   NNW   0.42   7.0     N   18.8   19.1   19.1  1016.2  0.00  0.00   0.000   0.002   28.6    45   15.5   28.9   8.28  .0720    116    1    100.0    5 
 7/08/20   5:20   18.8   18.8   18.7    75   14.3   5.0   NNW   0.42   6.0   NNW   18.8   19.1   19.1  1016.2  0.00  0.00   0.000   0.002   28.6    45   15.5   28.9   8.28  .0720    118    1    100.0    5 
 7/08/20   5:25   18.8   18.8   18.7    75   14.3   5.0     N   0.42   7.0   NNW   18.8   19.1   19.1  1016.2  0.00  0.00   0.000   0.002   28.5    45   15.4   28.9   8.28  .0720    115    1    100.0    5 
 7/08/20   5:30   18.7   18.8   18.7    76   14.4   5.0     N   0.42   7.0     N   18.7   19.0   19.0  1016.3  0.00  0.00   0.000   0.001   28.6    45   15.5   28.9   8.28  .0720    117    1    100.0    5 
 7/08/20   5:35   18.8   18.8   18.7    75   14.3   5.0     N   0.42   6.0     N   18.8   19.1   19.1  1016.4  0.00  0.00   0.000   0.002   28.5    45   15.4   28.9   8.28  .0721    117    1    100.0    5 
 7/08/20   5:40   18.7   18.8   18.7    76   14.4   5.0   NNW   0.42   7.0   NNW   18.7   19.0   19.0  1016.3  0.00  0.00   0.000   0.001   28.5    45   15.4   28.9   8.28  .0721    117    1    100.0    5 
 7/08/20   5:45   18.8   18.8   18.7    76   14.5   5.0     N   0.42   7.0     N   18.8   19.1   19.1  1016.4  0.00  0.00   0.000   0.002   28.5    45   15.4   28.9   8.28  .0721    116    1    100.0    5 
 7/08/20   5:50   18.8   18.8   18.8    76   14.5   5.0     N   0.42   7.0     N   18.8   19.1   19.1  1016.4  0.00  0.00   0.000   0.002   28.5    45   15.4   28.9   8.28  .0721    117    1    100.0    5 
 7/08/20   5:55   18.8   18.8   18.8    76   14.5   5.0     N   0.42   7.0     N   18.8   19.2   19.2  1016.4  0.00  0.00   0.000   0.002   28.5    45   15.4   28.9   8.28  .0721    117    1    100.0    5 
 7/08/20   6:00   18.8   18.8   18.8    76   14.5   5.0     N   0.42   7.0     N   18.8   19.1   19.1  1016.4  0.00  0.00   0.000   0.002   28.4    45   15.4   28.8   8.29  .0721    116    1    100.0    5 
 7/08/20   6:05   18.8   18.8   18.8    76   14.5   5.0     N   0.42   6.0   NNW   18.8   19.2   19.2  1016.4  0.00  0.00   0.000   0.002   28.4    45   15.4   28.8   8.29  .0721    116    1    100.0    5 
 7/08/20   6:10   18.8   18.8   18.8    76   14.5   5.0     N   0.42   7.0     N   18.8   19.1   19.1  1016.4  0.00  0.00   0.000   0.002   28.4    45   15.4   28.8   8.29  .0721    117    1    100.0    5 
 7/08/20   6:15   18.9   18.9   18.8    75   14.4   5.0     N   0.42   6.0     N   18.9   19.2   19.2  1016.5  0.00  0.00   0.000   0.002   28.4    45   15.4   28.8   8.29  .0721    117    1    100.0    5 
 7/08/20   6:20   19.0   19.0   18.8    75   14.5   5.0     N   0.42   7.0     N   19.0   19.3   19.3  1016.5  0.00  0.00   0.000   0.002   28.4    45   15.3   28.7   8.29  .0721    117    1    100.0    5 
 7/08/20   6:25   19.1   19.1   19.0    75   14.6   5.0     N   0.42   7.0     N   19.1   19.4   19.4  1016.5  0.00  0.00   0.000   0.003   28.4    45   15.3   28.7   8.29  .0721    118    1    100.0    5 
 7/08/20   6:30   19.2   19.3   19.1    75   14.7   5.0     N   0.42   7.0     N   19.2   19.6   19.6  1016.5  0.00  0.00   0.000   0.003   28.4    45   15.3   28.7   8.29  .0721    117    1    100.0    5 
 7/08/20   6:35   19.4   19.4   19.2    74   14.7   6.0     N   0.50   7.0     N   19.4   19.8   19.8  1016.5  0.00  0.00   0.000   0.004   28.4    45   15.3   28.7   8.29  .0721    117    1    100.0    5 
 7/08/20   6:40   19.6   19.6   19.4    74   14.8   5.0     N   0.42   7.0     N   19.6   19.9   19.9  1016.6  0.00  0.00   0.000   0.004   28.3    45   15.3   28.6   8.29  .0721    116    1    100.0    5 
 7/08/20   6:45   19.7   19.7   19.6    74   14.9   6.0     N   0.50   7.0     N   19.7   20.1   20.1  1016.5  0.00  0.00   0.000   0.005   28.3    45   15.3   28.6   8.29  .0721    117    1    100.0    5 
 7/08/20   6:50   19.8   19.8   19.7    73   14.9   5.0     N   0.42   7.0     N   19.8   20.2   20.2  1016.5  0.00  0.00   0.000   0.005   28.3    45   15.3   28.6   8.29  .0721    117    1    100.0    5 
 7/08/20   6:55   19.9   20.0   19.8    73   15.0   5.0     N   0.42   6.0     N   19.9   20.4   20.4  1016.5  0.00  0.00   0.000   0.006   28.3    45   15.3   28.6   8.29  .0721    116    1    100.0    5 
 7/08/20   7:00   20.2   20.2   20.0    72   15.0   5.0     N   0.42   6.0     N   20.2   20.6   20.6  1016.5  0.00  0.00   0.000   0.006   28.3    45   15.3   28.6   8.29  .0721    117    1    100.0    5 
 7/08/20   7:05   20.3   20.3   20.2    72   15.1   5.0     N   0.42   6.0     N   20.3   20.7   20.7  1016.5  0.00  0.00   0.000   0.007   28.3    45   15.3   28.6   8.29  .0721    117    1    100.0    5 
 7/08/20   7:10   20.6   20.6   20.3    72   15.3   4.0     N   0.33   6.0     N   20.6   20.9   20.9  1016.6  0.00  0.00   0.000   0.008   28.3    45   15.2   28.5   8.29  .0721    117    1    100.0    5 
 7/08/20   7:15   20.7   20.7   20.5    72   15.4   4.0     N   0.33   6.0     N   20.7   21.0   21.0  1016.5  0.00  0.00   0.000   0.008   28.3    45   15.2   28.5   8.29  .0721    117    1    100.0    5 
 7/08/20   7:20   20.9   20.9   20.7    72   15.7   4.0     N   0.33   6.0     N   20.9   21.1   21.1  1016.5  0.00  0.00   0.000   0.009   28.3    45   15.2   28.5   8.29  .0721    117    1    100.0    5 
 7/08/20   7:25   21.2   21.2   20.9    70   15.5   5.0     N   0.42   7.0     N   21.2   21.2   21.2  1016.4  0.00  0.00   0.000   0.010   28.3    45   15.2   28.5   8.29  .0721    118    1    100.0    5 
 7/08/20   7:30   21.4   21.4   21.2    70   15.7   4.0     N   0.33   6.0     N   21.4   21.6   21.6  1016.5  0.00  0.00   0.000   0.011   28.3    45   15.2   28.5   8.29  .0721    117    1    100.0    5 
 7/08/20   7:35   21.8   21.8   21.4    70   16.1   1.0     N   0.08   2.0     N   21.8   22.1   22.1  1016.5  0.00  0.00   0.000   0.012   28.2    46   15.5   28.5   8.45  .0721    117    1    100.0    5 
 7/08/20   7:40   22.3   22.3   21.8    69   16.3   0.0     N   0.00   2.0     N   22.3   22.7   22.7  1016.5  0.00  0.00   0.000   0.014   28.2    46   15.5   28.5   8.45  .0721    117    1    100.0    5 
 7/08/20   7:45   22.7   22.7   22.3    67   16.3   1.0   NNE   0.08   3.0   NNE   22.7   23.2   23.2  1016.6  0.00  0.00   0.000   0.015   28.2    46   15.5   28.5   8.45  .0721    116    1    100.0    5 
 7/08/20   7:50   23.1   23.1   22.7    65   16.1   2.0   NNE   0.17   6.0     N   23.1   23.6   23.6  1016.6  0.00  0.00   0.000   0.016   28.2    46   15.5   28.4   8.45  .0721    116    1    100.0    5 
 7/08/20   7:55   23.2   23.2   23.1    64   16.0   4.0     N   0.33   6.0   NNE   23.2   23.8   23.8  1016.6  0.00  0.00   0.000   0.017   28.2    46   15.5   28.4   8.45  .0721    117    1    100.0    5 
 7/08/20   8:00   23.4   23.4   23.2    63   15.9   3.0     N   0.25   5.0     N   23.4   23.9   23.9  1016.6  0.00  0.00   0.000   0.018   28.2    46   15.5   28.4   8.45  .0721    117    1    100.0    5 
 7/08/20   8:05   23.6   23.6   23.4    63   16.2   3.0     N   0.25   5.0     N   23.6   24.2   24.2  1016.6  0.00  0.00   0.000   0.018   28.2    46   15.5   28.4   8.45  .0721    117    1    100.0    5 
 7/08/20   8:10   23.8   23.8   23.6    63   16.4   3.0   NNE   0.25   5.0    NE   23.8   24.4   24.4  1016.7  0.00  0.00   0.000   0.019   28.1    46   15.4   28.3   8.45  .0722    116    1    100.0    5 
 7/08/20   8:15   24.1   24.1   23.8    62   16.3   3.0     N   0.25   4.0     N   24.1   24.6   24.6  1016.7  0.00  0.00   0.000   0.020   28.1    46   15.4   28.3   8.45  .0722    117    1    100.0    5 
 7/08/20   8:20   24.3   24.3   24.1    60   16.0   3.0   NNE   0.25   5.0   NNE   24.3   24.7   24.7  1016.7  0.00  0.00   0.000   0.021   28.1    46   15.4   28.2   8.45  .0722    117    1    100.0    5 
 7/08/20   8:25   24.6   24.6   24.3    60   16.3   3.0   NNE   0.25   5.0     N   24.6   24.9   24.9  1016.8  0.00  0.00   0.000   0.022   28.1    47   15.7   28.3   8.60  .0722    116    1    100.0    5 
 7/08/20   8:30   24.8   24.8   24.5    59   16.3   2.0   NNE   0.17   4.0   NNE   24.8   25.2   25.2  1016.8  0.00  0.00   0.000   0.023   28.0    47   15.6   28.2   8.60  .0722    118    1    100.0    5 
 7/08/20   8:35   25.1   25.1   24.8    56   15.7   2.0     N   0.17   5.0     N   25.1   25.3   25.3  1016.8  0.00  0.00   0.000   0.023   28.0    47   15.6   28.2   8.60  .0722    117    1    100.0    5 
 7/08/20   8:40   25.3   25.3   25.1    56   15.9   2.0     N   0.17   4.0     N   25.3   25.6   25.6  1016.8  0.00  0.00   0.000   0.024   28.0    47   15.6   28.2   8.60  .0722    117    1    100.0    5 
 7/08/20   8:45   25.6   25.6   25.3    55   15.8   2.0   NNE   0.17   4.0    NE   25.6   25.8   25.8  1016.8  0.00  0.00   0.000   0.025   28.0    47   15.6   28.2   8.60  .0722    117    1    100.0    5 
 7/08/20   8:50   25.9   25.9   25.6    54   15.9   2.0   ENE   0.17   5.0    NE   25.9   26.2   26.2  1016.8  0.00  0.00   0.000   0.026   28.0    47   15.6   28.2   8.60  .0722    117    1    100.0    5 
 7/08/20   8:55   26.2   26.2   26.0    53   15.9   2.0   ENE   0.17   5.0     E   26.2   26.4   26.4  1016.8  0.00  0.00   0.000   0.027   27.9    47   15.6   28.2   8.60  .0722    117    1    100.0    5 
 7/08/20   9:00   26.4   26.4   26.3    53   16.1   3.0     E   0.25   7.0     E   26.4   26.7   26.7  1016.9  0.00  0.00   0.000   0.028   27.9    47   15.6   28.2   8.60  .0722    117    1    100.0    5 
 7/08/20   9:05   25.9   26.4   25.9    56   16.5   6.0   ESE   0.50   9.0     E   25.9   26.3   26.3  1016.8  0.00  0.00   0.000   0.026   27.9    48   15.9   28.2   8.80  .0722    116    1    100.0    5 
 7/08/20   9:10   25.4   25.9   25.4    60   17.1   7.0   ESE   0.58   9.0   ESE   25.4   25.9   25.9  1016.8  0.00  0.00   0.000   0.025   27.9    48   15.9   28.2   8.80  .0722    116    1    100.0    5 
 7/08/20   9:15   25.1   25.5   25.1    58   16.2   7.0   ESE   0.58   8.0   ESE   25.1   25.4   25.4  1016.8  0.00  0.00   0.000   0.023   27.9    48   15.9   28.2   8.80  .0722    117    1    100.0    5 
 7/08/20   9:20   25.0   25.1   24.9    59   16.4   6.0   ESE   0.50   8.0   ESE   25.0   25.4   25.4  1016.8  0.00  0.00   0.000   0.023   27.9    48   15.9   28.2   8.80  .0722    116    1    100.0    5 
 7/08/20   9:25   24.9   25.0   24.9    61   16.9   5.0   ESE   0.42   8.0     E   24.9   25.4   25.4  1016.8  0.00  0.00   0.000   0.023   27.9    48   15.9   28.1   8.81  .0722    116    1    100.0    5 
 7/08/20   9:30   24.9   25.0   24.9    60   16.6   5.0   ESE   0.42   7.0   ESE   24.9   25.3   25.3  1016.9  0.00  0.00   0.000   0.023   27.9    48   15.9   28.1   8.81  .0722    117    1    100.0    5 
 7/08/20   9:35   25.0   25.0   24.9    59   16.4   4.0   ESE   0.33   7.0   ESE   25.0   25.4   25.4  1016.9  0.00  0.00   0.000   0.023   27.9    48   15.9   28.1   8.81  .0722    116    1    100.0    5 
 7/08/20   9:40   25.1   25.1   25.0    59   16.5   4.0   ESE   0.33   6.0     E   25.1   25.4   25.4  1016.9  0.00  0.00   0.000   0.023   27.9    49   16.2   28.2   8.91  .0722    116    1    100.0    5 
 7/08/20   9:45   24.9   25.1   24.9    60   16.6   5.0   ESE   0.42   7.0   ESE   24.9   25.4   25.4  1016.8  0.00  0.00   0.000   0.023   27.9    49   16.2   28.2   8.91  .0722    117    1    100.0    5 
 7/08/20   9:50   24.8   24.9   24.8    61   16.8   5.0   ESE   0.42   7.0   ESE   24.8   25.3   25.3  1016.7  0.00  0.00   0.000   0.023   27.9    49   16.2   28.2   8.91  .0722    117    1    100.0    5 
 7/08/20   9:55   24.9   24.9   24.8    61   16.9   5.0   ESE   0.42   8.0   ESE   24.9   25.4   25.4  1016.7  0.00  0.00   0.000   0.023   27.9    49   16.2   28.2   8.91  .0722    117    1    100.0    5 
 7/08/20  10:00   25.0   25.0   24.9    59   16.4   5.0   ESE   0.42   7.0   ESE   25.0   25.4   25.4  1016.7  0.00  0.00   0.000   0.023   27.9    49   16.2   28.2   8.91  .0722    117    1    100.0    5 
 7/08/20  10:05   24.9   25.0   24.9    58   16.1   6.0   ESE   0.50   9.0   ESE   24.9   25.3   25.3  1016.7  0.00  0.00   0.000   0.023   27.9    49   16.2   28.2   8.91  .0722    117    1    100.0    5 
 7/08/20  10:10   24.9   25.0   24.9    63   17.4   4.0    SE   0.33   7.0   ESE   24.9   25.6   25.6  1016.8  0.00  0.00   0.000   0.023   27.9    49   16.2   28.2   8.91  .0722    116    1    100.0    5 
 7/08/20  10:15   24.4   24.9   24.4    68   18.2   4.0    SE   0.33   6.0    SE   24.4   25.3   25.3  1016.8  0.00  0.00   0.000   0.021   27.9    49   16.2   28.2   8.91  .0722    117    1    100.0    5 
 7/08/20  10:20   23.8   24.4   23.8    71   18.2   5.0    SE   0.42   7.0    SE   23.8   24.8   24.8  1016.8  0.00  0.00   0.000   0.019   27.9    49   16.2   28.2   8.91  .0722    117    1    100.0    5 
 7/08/20  10:25   23.5   23.8   23.5    70   17.7   5.0    SE   0.42   7.0    SE   23.5   24.4   24.4  1016.8  0.00  0.00   0.000   0.018   27.9    50   16.5   28.3   9.11  .0721    117    1    100.0    5 
 7/08/20  10:30   23.2   23.4   23.1    71   17.6   5.0    SE   0.42   7.0    SE   23.2   24.0   24.0  1016.8  0.00  0.00   0.000   0.017   27.9    50   16.5   28.3   9.11  .0721    115    1    100.0    5 
 7/08/20  10:35   23.1   23.2   23.1    71   17.5   5.0    SE   0.42   6.0    SE   23.1   23.8   23.8  1016.8  0.00  0.00   0.000   0.016   27.9    50   16.5   28.3   9.11  .0721    116    1    100.0    5 
 7/08/20  10:40   23.2   23.2   23.1    72   17.8   4.0    SE   0.33   6.0    SE   23.2   24.1   24.1  1016.8  0.00  0.00   0.000   0.017   27.9    50   16.6   28.4   9.10  .0721    116    1    100.0    5 
 7/08/20  10:45   23.2   23.2   23.1    73   18.1   4.0    SE   0.33   6.0    SE   23.2   24.1   24.1  1016.9  0.00  0.00   0.000   0.017   27.9    50   16.5   28.3   9.11  .0721    117    1    100.0    5 
 7/08/20  10:50   23.1   23.2   23.1    74   18.2   4.0    SE   0.33   6.0    SE   23.1   24.1   24.1  1016.9  0.00  0.00   0.000   0.017   27.9    50   16.6   28.4   9.10  .0721    117    1    100.0    5 
 7/08/20  10:55   23.1   23.1   23.1    75   18.4   4.0    SE   0.33   6.0    SE   23.1   24.0   24.0  1017.0  0.00  0.00   0.000   0.016   27.9    51   16.9   28.4   9.30  .0721    117    1    100.0    5 
 7/08/20  11:00   22.9   23.1   22.9    75   18.3   4.0    SE   0.33   6.0    SE   22.9   23.8   23.8  1017.0  0.00  0.00   0.000   0.016   27.9    51   16.9   28.4   9.30  .0721    117    1    100.0    5 
 7/08/20  11:05   23.1   23.1   22.9    76   18.6   4.0    SE   0.33   6.0    SE   23.1   24.0   24.0  1016.9  0.00  0.00   0.000   0.016   28.0    51   16.9   28.6   9.30  .0721    116    1    100.0    5 
 7/08/20  11:10   23.1   23.2   23.1    76   18.6   4.0    SE   0.33   7.0   ESE   23.1   24.1   24.1  1016.9  0.00  0.00   0.000   0.017   27.9    51   16.9   28.4   9.30  .0721    116    1    100.0    5 
 7/08/20  11:15   23.1   23.1   23.1    76   18.6   5.0    SE   0.42   7.0    SE   23.1   24.1   24.1  1017.0  0.00  0.00   0.000   0.017   28.0    51   16.9   28.6   9.30  .0721    117    1    100.0    5 
 7/08/20  11:20   23.1   23.2   23.1    76   18.6   6.0    SE   0.50   8.0   ESE   23.1   24.1   24.1  1016.9  0.00  0.00   0.000   0.017   28.0    51   16.9   28.6   9.30  .0721    116    1    100.0    5 
 7/08/20  11:25   23.2   23.2   23.1    77   18.9   7.0    SE   0.58   9.0   ESE   23.2   24.2   24.2  1016.8  0.00  0.00   0.000   0.017   28.1    51   17.0   28.7   9.30  .0721    117    1    100.0    5 
 7/08/20  11:30   23.3   23.3   23.2    76   18.9   8.0   ESE   0.67   9.0   ESE   23.1   24.4   24.1  1016.8  0.00  0.00   0.000   0.017   28.1    51   17.0   28.7   9.30  .0721    117    1    100.0    5 
 7/08/20  11:35   23.3   23.4   23.3    75   18.7   7.0   ESE   0.58   9.0   ESE   23.3   24.4   24.4  1016.8  0.00  0.00   0.000   0.017   28.1    51   17.0   28.7   9.30  .0721    117    1    100.0    5 
 7/08/20  11:40   23.2   23.4   23.2    76   18.8   8.0   ESE   0.67  10.0     E   22.9   24.2   23.9  1016.7  0.00  0.00   0.000   0.017   28.1    51   17.0   28.7   9.30  .0721    118    1    100.0    5 
 7/08/20  11:45   23.2   23.3   23.2    75   18.5   8.0   ESE   0.67  10.0   ESE   22.9   24.2   23.9  1016.7  0.00  0.00   0.000   0.017   28.1    51   17.0   28.7   9.30  .0720    117    1    100.0    5 
 7/08/20  11:50   23.1   23.2   23.1    76   18.6   8.0   ESE   0.67  10.0   ESE   22.8   24.1   23.8  1016.7  0.00  0.00   0.000   0.017   28.1    51   17.0   28.7   9.30  .0720    117    1    100.0    5 
 7/08/20  11:55   23.0   23.1   22.9    77   18.7   8.0   ESE   0.67  10.0   ESE   22.7   23.9   23.7  1016.7  0.00  0.00   0.000   0.016   28.1    52   17.3   28.8   9.40  .0720    117    1    100.0    5 
 7/08/20  12:00   23.1   23.1   23.0    76   18.6   8.0   ESE   0.67  10.0   ESE   22.8   24.1   23.8  1016.7  0.00  0.00   0.000   0.017   28.1    52   17.3   28.8   9.40  .0720    116    1    100.0    5 
 7/08/20  12:05   23.2   23.3   23.1    75   18.5   7.0   ESE   0.58   9.0   ESE   23.2   24.2   24.2  1016.7  0.00  0.00   0.000   0.017   28.1    52   17.3   28.8   9.40  .0720    117    1    100.0    5 
 7/08/20  12:10   23.1   23.2   23.1    76   18.6   7.0   ESE   0.58  10.0   ESE   23.1   24.1   24.1  1016.7  0.00  0.00   0.000   0.017   28.2    52   17.4   28.9   9.40  .0720    117    1    100.0    5 
 7/08/20  12:15   23.2   23.2   23.1    76   18.7   8.0   ESE   0.67  10.0   ESE   22.9   24.2   23.9  1016.8  0.00  0.00   0.000   0.017   28.2    52   17.4   29.0   9.39  .0720    117    1    100.0    5 
 7/08/20  12:20   23.3   23.3   23.1    75   18.6   8.0   ESE   0.67  10.0   ESE   23.0   24.3   24.1  1016.8  0.00  0.00   0.000   0.017   28.2    52   17.4   29.0   9.39  .0720    116    1    100.0    5 
 7/08/20  12:25   23.1   23.3   23.1    76   18.6   7.0   ESE   0.58  10.0   ESE   23.1   24.0   24.0  1016.9  0.00  0.00   0.000   0.016   28.2    52   17.4   29.0   9.39  .0720    116    1    100.0    5 
 7/08/20  12:30   23.3   23.3   23.1    75   18.6   7.0   ESE   0.58   9.0   ESE   23.3   24.3   24.3  1016.9  0.00  0.00   0.000   0.017   28.2    52   17.4   29.0   9.39  .0720    117    1    100.0    5 
 7/08/20  12:35   23.2   23.4   23.2    75   18.5   8.0   ESE   0.67  10.0   ESE   22.9   24.2   23.9  1016.8  0.00  0.00   0.000   0.017   28.2    52   17.4   29.0   9.39  .0720    117    1    100.0    5 
 7/08/20  12:40   23.6   23.6   23.2    74   18.6   8.0   ESE   0.67  10.0   ESE   23.3   24.6   24.3  1016.8  0.00  0.00   0.000   0.018   28.3    52   17.5   29.1   9.39  .0720    117    1    100.0    5 
 7/08/20  12:45   23.6   23.6   23.5    73   18.5   8.0   ESE   0.67  10.0   ESE   23.3   24.7   24.4  1016.9  0.00  0.00   0.000   0.018   28.3    52   17.5   29.1   9.39  .0720    117    1    100.0    5 
 7/08/20  12:50   23.5   23.7   23.5    72   18.2   8.0   ESE   0.67  10.0   ESE   23.2   24.5   24.2  1016.9  0.00  0.00   0.000   0.018   28.3    52   17.5   29.1   9.39  .0720    117    1    100.0    5 
 7/08/20  12:55   23.2   23.4   23.2    74   18.3   8.0   ESE   0.67  10.0   ESE   22.9   24.2   23.9  1016.9  0.00  0.00   0.000   0.017   28.3    52   17.5   29.2   9.39  .0719    117    1    100.0    5 
 7/08/20  13:00   23.2   23.3   23.2    74   18.3   8.0   ESE   0.67  10.0   ESE   22.9   24.1   23.8  1016.9  0.00  0.00   0.000   0.017   28.3    52   17.5   29.2   9.39  .0719    117    1    100.0    5 
 7/08/20  13:05   23.4   23.4   23.2    73   18.3   8.0   ESE   0.67  10.0     E   23.1   24.4   24.1  1016.9  0.00  0.00   0.000   0.018   28.3    52   17.5   29.2   9.39  .0719    117    1    100.0    5 
 7/08/20  13:10   23.4   23.4   23.4    73   18.3   8.0   ESE   0.67  11.0     E   23.2   24.4   24.2  1016.8  0.00  0.00   0.000   0.018   28.3    52   17.5   29.2   9.39  .0719    115    1    100.0    5 
 7/08/20  13:15   23.2   23.4   23.2    73   18.1   9.0   ESE   0.75  11.0     E   22.5   24.2   23.4  1016.8  0.00  0.00   0.000   0.017   28.4    52   17.6   29.2   9.39  .0719    117    1    100.0    5 
 7/08/20  13:20   23.2   23.3   23.2    73   18.1   9.0   ESE   0.75  11.0     E   22.4   24.1   23.3  1016.9  0.00  0.00   0.000   0.017   28.4    52   17.6   29.2   9.39  .0719    117    1    100.0    5 
 7/08/20  13:25   23.1   23.2   23.1    74   18.2   9.0   ESE   0.75  11.0     E   22.3   23.9   23.2  1016.8  0.00  0.00   0.000   0.016   28.4    52   17.6   29.2   9.39  .0719    117    1    100.0    5 
 7/08/20  13:30   22.9   23.1   22.9    74   18.0   9.0   ESE   0.75  11.0     E   22.1   23.7   22.9  1016.8  0.00  0.00   0.000   0.016   28.4    52   17.6   29.2   9.39  .0719    116    1    100.0    5 
 7/08/20  13:35   22.9   23.0   22.8    74   18.1  10.0   ESE   0.83  13.0     E   21.8   23.8   22.6  1016.7  0.00  0.00   0.000   0.016   28.4    52   17.6   29.3   9.39  .0719    117    1    100.0    5 
 7/08/20  13:40   23.3   23.3   22.9    73   18.2   9.0   ESE   0.75  12.0   ESE   22.6   24.2   23.5  1016.7  0.00  0.00   0.000   0.017   28.5    52   17.7   29.4   9.38  .0719    116    1    100.0    5 
 7/08/20  13:45   23.2   23.3   23.2    73   18.1   9.0   ESE   0.75  11.0     E   22.5   24.2   23.4  1016.8  0.00  0.00   0.000   0.017   28.5    52   17.7   29.4   9.38  .0719    117    1    100.0    5 
 7/08/20  13:50   23.3   23.3   23.1    74   18.4   8.0   ESE   0.67  11.0   ESE   23.1   24.3   24.1  1016.8  0.00  0.00   0.000   0.017   28.6    52   17.7   29.5   9.38  .0719    116    1    100.0    5 
 7/08/20  13:55   23.3   23.4   23.3    73   18.2   9.0   ESE   0.75  11.0   ESE   22.6   24.3   23.6  1016.7  0.00  0.00   0.000   0.017   28.6    52   17.8   29.6   9.38  .0718    117    1    100.0    5 
 7/08/20  14:00   23.3   23.4   23.3    73   18.2   9.0   ESE   0.75  11.0     E   22.6   24.2   23.5  1016.8  0.00  0.00   0.000   0.017   28.6    52   17.8   29.6   9.38  .0719    117    1    100.0    5 
 7/08/20  14:05   23.2   23.3   23.2    72   17.9   9.0   ESE   0.75  11.0     E   22.5   24.1   23.4  1016.7  0.00  0.00   0.000   0.017   28.7    52   17.8   29.7   9.38  .0718    117    1    100.0    5 
 7/08/20  14:10   23.4   23.4   23.3    71   17.9   9.0   ESE   0.75  11.0   ESE   22.7   24.4   23.7  1016.6  0.00  0.00   0.000   0.018   28.7    52   17.9   29.8   9.38  .0718    117    1    100.0    5 
 7/08/20  14:15   23.5   23.5   23.4    71   17.9   9.0   ESE   0.75  12.0   ESE   22.8   24.4   23.7  1016.6  0.00  0.00   0.000   0.018   28.7    51   17.6   29.7   9.28  .0718    117    1    100.0    5 
 7/08/20  14:20   23.5   23.6   23.5    71   17.9   9.0   ESE   0.75  11.0   ESE   22.8   24.4   23.7  1016.7  0.00  0.00   0.000   0.018   28.7    51   17.6   29.7   9.28  .0718    117    1    100.0    5 
 7/08/20  14:25   23.4   23.6   23.4    71   17.9   8.0   ESE   0.67  10.0     E   23.2   24.4   24.1  1016.8  0.00  0.00   0.000   0.018   28.8    51   17.7   29.9   9.27  .0718    116    1    100.0    5 
 7/08/20  14:30   23.8   23.8   23.4    71   18.2   7.0   ESE   0.58  10.0     E   23.8   24.8   24.8  1016.8  0.00  0.00   0.000   0.019   28.8    51   17.7   29.9   9.27  .0718    117    1    100.0    5 
 7/08/20  14:35   23.7   23.8   23.6    70   17.9   8.0   ESE   0.67  10.0     E   23.4   24.6   24.3  1016.8  0.00  0.00   0.000   0.019   28.8    51   17.7   29.9   9.27  .0718    117    1    100.0    5 
 7/08/20  14:40   23.8   23.8   23.7    69   17.7   9.0   ESE   0.75  11.0     E   23.1   24.7   23.9  1016.8  0.00  0.00   0.000   0.019   28.9    51   17.7   30.0   9.27  .0718    116    1    100.0    5 
 7/08/20  14:45   23.8   23.9   23.8    69   17.8   9.0   ESE   0.75  11.0   ESE   23.1   24.7   24.0  1016.8  0.00  0.00   0.000   0.019   28.9    51   17.7   30.0   9.27  .0718    116    1    100.0    5 
 7/08/20  14:50   24.1   24.1   23.8    67   17.5   9.0   ESE   0.75  13.0     E   23.3   24.9   24.2  1016.7  0.00  0.00   0.000   0.020   28.9    51   17.8   30.1   9.27  .0718    118    1    100.0    5 
 7/08/20  14:55   24.3   24.4   24.1    65   17.3   9.0     E   0.75  12.0   ESE   23.6   25.0   24.3  1016.6  0.00  0.00   0.000   0.021   28.9    50   17.5   29.9   9.07  .0718    117    1    100.0    5 
 7/08/20  15:00   24.2   24.4   24.2    64   17.0  10.0     E   0.83  13.0     E   23.2   24.8   23.8  1016.6  0.00  0.00   0.000   0.020   28.9    50   17.5   29.9   9.07  .0718    117    1    100.0    5 
 7/08/20  15:05   24.4   24.4   24.2    64   17.1   8.0     E   0.67  11.0     E   24.1   25.0   24.7  1016.7  0.00  0.00   0.000   0.021   29.0    50   17.5   30.0   9.07  .0718    117    1    100.0    5 
 7/08/20  15:10   24.6   24.6   24.3    63   17.1   7.0     E   0.58  11.0     E   24.6   25.2   25.2  1016.7  0.00  0.00   0.000   0.022   29.0    49   17.2   29.9   8.87  .0718    117    1    100.0    5 
 7/08/20  15:15   24.6   24.7   24.6    62   16.8   8.0     E   0.67  11.0     E   24.3   25.1   24.8  1016.6  0.00  0.00   0.000   0.022   29.0    49   17.2   29.9   8.87  .0718    116    1    100.0    5 
 7/08/20  15:20   24.5   24.6   24.4    62   16.7   8.0     E   0.67  11.0     E   24.2   25.0   24.7  1016.6  0.00  0.00   0.000   0.021   29.0    49   17.2   29.9   8.87  .0718    117    1    100.0    5 
 7/08/20  15:25   24.4   24.6   24.4    62   16.7   8.0     E   0.67  11.0   ESE   24.2   24.9   24.7  1016.7  0.00  0.00   0.000   0.021   29.0    49   17.2   29.9   8.87  .0718    117    1    100.0    5 
 7/08/20  15:30   24.3   24.4   24.3    62   16.5   8.0     E   0.67  10.0   ESE   24.0   24.8   24.5  1016.7  0.00  0.00   0.000   0.021   29.1    48   16.9   29.9   8.76  .0718    117    1    100.0    5 
 7/08/20  15:35   24.4   24.4   24.3    60   16.1   7.0     E   0.58  10.0   ESE   24.4   24.8   24.8  1016.6  0.00  0.00   0.000   0.021   29.1    49   17.3   30.0   8.86  .0718    116    1    100.0    5 
 7/08/20  15:40   24.4   24.4   24.4    61   16.4   7.0     E   0.58   9.0     E   24.4   24.8   24.8  1016.6  0.00  0.00   0.000   0.021   29.1    49   17.3   30.0   8.86  .0718    116    1    100.0    5 
 7/08/20  15:45   24.6   24.6   24.4    60   16.3   7.0     E   0.58   9.0     E   24.6   25.0   25.0  1016.6  0.00  0.00   0.000   0.022   29.1    49   17.3   30.0   8.86  .0718    116    1    100.0    5 
 7/08/20  15:50   24.8   24.8   24.6    58   16.0   7.0   ESE   0.58  11.0     E   24.8   25.1   25.1  1016.5  0.00  0.00   0.000   0.022   29.1    49   17.3   30.1   8.86  .0718    118    1    100.0    5 
 7/08/20  15:55   24.6   24.8   24.6    61   16.5   8.0     E   0.67  10.0   ESE   24.3   25.0   24.7  1016.5  0.00  0.00   0.000   0.022   29.1    49   17.3   30.0   8.86  .0718    117    1    100.0    5 
 7/08/20  16:00   24.4   24.6   24.4    61   16.4   8.0     E   0.67  11.0   ESE   24.1   24.8   24.6  1016.5  0.00  0.00   0.000   0.021   29.1    49   17.3   30.0   8.86  .0718    117    1    100.0    5 
 7/08/20  16:05   24.4   24.4   24.4    60   16.2   8.0     E   0.67  10.0   ESE   24.2   24.8   24.6  1016.5  0.00  0.00   0.000   0.021   29.1    49   17.3   30.0   8.86  .0718    117    1    100.0    5 
 7/08/20  16:10   24.7   24.7   24.4    59   16.1   7.0     E   0.58   9.0     E   24.7   25.1   25.1  1016.5  0.00  0.00   0.000   0.022   29.1    49   17.3   30.0   8.86  .0718    117    1    100.0    5 
 7/08/20  16:15   24.7   24.8   24.7    60   16.4   8.0     E   0.67   9.0     E   24.4   25.2   24.9  1016.4  0.00  0.00   0.000   0.022   29.1    49   17.3   30.0   8.86  .0718    116    1    100.0    5 
 7/08/20  16:20   24.7   24.8   24.7    59   16.1   8.0     E   0.67  10.0     E   24.4   25.1   24.8  1016.3  0.00  0.00   0.000   0.022   29.1    48   16.9   29.9   8.76  .0718    117    1    100.0    5 
 7/08/20  16:25   24.7   24.7   24.7    60   16.4   6.0     E   0.50  10.0   ESE   24.7   25.1   25.1  1016.3  0.00  0.00   0.000   0.022   29.1    48   16.9   29.9   8.76  .0718    117    1    100.0    5 
 7/08/20  16:30   24.8   24.8   24.7    58   16.0   5.0   ESE   0.42   9.0   ESE   24.8   25.2   25.2  1016.2  0.00  0.00   0.000   0.023   29.1    48   16.9   29.9   8.76  .0718    117    1    100.0    5 
 7/08/20  16:35   25.1   25.1   24.8    57   15.9   5.0     E   0.42   9.0   ESE   25.1   25.3   25.3  1016.1  0.00  0.00   0.000   0.023   29.1    48   16.9   29.9   8.76  .0718    116    1    100.0    5 
 7/08/20  16:40   25.2   25.2   25.1    56   15.8   5.0   ESE   0.42   8.0   ESE   25.2   25.5   25.5  1016.1  0.00  0.00   0.000   0.024   29.1    48   16.9   29.9   8.76  .0718    117    1    100.0    5 
 7/08/20  16:45   25.2   25.3   25.2    56   15.8   5.0     E   0.42   8.0     E   25.2   25.5   25.5  1016.0  0.00  0.00   0.000   0.024   29.1    48   16.9   29.9   8.76  .0718    117    1    100.0    5 
 7/08/20  16:50   25.3   25.3   25.2    54   15.4   5.0     E   0.42   9.0     E   25.3   25.5   25.5  1015.9  0.00  0.00   0.000   0.024   29.1    48   16.9   29.9   8.76  .0718    117    1    100.0    5 
 7/08/20  16:55   25.6   25.6   25.3    52   15.0   4.0     E   0.33   8.0     E   25.6   25.7   25.7  1016.0  0.00  0.00   0.000   0.025   29.1    48   16.9   29.9   8.76  .0718    118    1    100.0    5 
 7/08/20  17:00   25.9   25.9   25.6    51   15.0   4.0     E   0.33   9.0     E   25.9   26.0   26.0  1015.9  0.00  0.00   0.000   0.026   29.1    48   16.9   29.9   8.76  .0718    117    1    100.0    5 
 7/08/20  17:05   25.9   26.0   25.8    52   15.3   4.0     E   0.33   9.0     E   25.9   26.1   26.1  1015.9  0.00  0.00   0.000   0.026   29.1    48   16.9   29.9   8.76  .0718    117    1    100.0    5 
 7/08/20  17:10   25.8   26.0   25.8    53   15.5   5.0     E   0.42   8.0     E   25.8   26.1   26.1  1015.9  0.00  0.00   0.000   0.026   29.1    48   16.9   29.9   8.76  .0718    117    1    100.0    5 
 7/08/20  17:15   25.7   25.8   25.7    54   15.7   5.0     E   0.42   8.0     E   25.7   25.9   25.9  1015.9  0.00  0.00   0.000   0.025   29.1    48   16.9   29.9   8.76  .0718    117    1    100.0    5 
 7/08/20  17:20   25.7   25.7   25.6    55   15.9   5.0     E   0.42   8.0   ESE   25.7   25.9   25.9  1015.8  0.00  0.00   0.000   0.025   29.1    48   16.9   29.9   8.76  .0718    117    1    100.0    5 
 7/08/20  17:25   25.6   25.7   25.6    54   15.6   5.0     E   0.42   9.0     E   25.6   25.8   25.8  1015.6  0.00  0.00   0.000   0.025   29.1    48   16.9   29.9   8.76  .0717    117    1    100.0    5 
 7/08/20  17:30   25.6   25.7   25.6    55   15.9   5.0     E   0.42   8.0     E   25.6   25.9   25.9  1015.6  0.00  0.00   0.000   0.025   29.1    48   16.9   29.9   8.76  .0717    117    1    100.0    5 
 7/08/20  17:35   25.7   25.7   25.6    53   15.4   4.0     E   0.33   8.0     E   25.7   25.9   25.9  1015.6  0.00  0.00   0.000   0.026   29.1    48   16.9   29.9   8.76  .0717    117    1    100.0    5 
 7/08/20  17:40   25.9   25.9   25.7    50   14.7   4.0     E   0.33   8.0     E   25.9   25.9   25.9  1015.6  0.00  0.00   0.000   0.026   29.1    48   16.9   29.9   8.76  .0717    117    1    100.0    5 
 7/08/20  17:45   26.2   26.2   25.9    48   14.3   5.0     E   0.42   9.0     E   26.2   26.2   26.2  1015.5  0.00  0.00   0.000   0.027   29.1    48   17.0   29.9   8.76  .0717    117    1    100.0    5 
 7/08/20  17:50   26.4   26.4   26.2    47   14.2   4.0     E   0.33   8.0     E   26.4   26.3   26.3  1015.5  0.00  0.00   0.000   0.028   29.1    48   16.9   29.9   8.76  .0717    117    1    100.0    5 
 7/08/20  17:55   26.6   26.6   26.4    46   14.0   5.0     E   0.42   8.0   ENE   26.6   26.4   26.4  1015.4  0.00  0.00   0.000   0.029   29.1    48   17.0   29.9   8.76  .0717    116    1    100.0    5 
 7/08/20  18:00   26.6   26.7   26.6    47   14.4   6.0     E   0.50   9.0   ENE   26.6   26.5   26.5  1015.5  0.00  0.00   0.000   0.029   29.1    48   17.0   29.9   8.76  .0717    118    1    100.0    5 
 7/08/20  18:05   26.5   26.6   26.5    49   14.9   6.0     E   0.50   9.0     E   26.5   26.5   26.5  1015.4  0.00  0.00   0.000   0.028   29.1    48   17.0   29.9   8.76  .0717    116    1    100.0    5 
 7/08/20  18:10   26.5   26.5   26.4    49   14.9   6.0     E   0.50   9.0     E   26.5   26.5   26.5  1015.3  0.00  0.00   0.000   0.028   29.1    48   16.9   29.9   8.76  .0717    117    1    100.0    5 
 7/08/20  18:15   26.6   26.6   26.5    50   15.3   6.0     E   0.50   9.0     E   26.6   26.6   26.6  1015.3  0.00  0.00   0.000   0.029   29.1    48   17.0   29.9   8.76  .0717    117    1    100.0    5 
 7/08/20  18:20   26.6   26.6   26.5    49   15.0   5.0     E   0.42   8.0     E   26.6   26.6   26.6  1015.3  0.00  0.00   0.000   0.029   29.1    48   17.0   29.9   8.76  .0717    116    1    100.0    5 
 7/08/20  18:25   26.7   26.7   26.5    48   14.7   6.0     E   0.50   9.0   ESE   26.7   26.6   26.6  1015.2  0.00  0.00   0.000   0.029   29.1    48   17.0   29.9   8.76  .0717    117    1    100.0    5 
 7/08/20  18:30   26.7   26.7   26.6    48   14.8   6.0     E   0.50   9.0     E   26.7   26.7   26.7  1015.2  0.00  0.00   0.000   0.029   29.1    48   17.0   29.9   8.76  .0717    117    1    100.0    5 
 7/08/20  18:35   26.6   26.8   26.6    51   15.6   7.0     E   0.58   9.0   ESE   26.6   26.7   26.7  1015.1  0.00  0.00   0.000   0.029   29.1    48   17.0   29.9   8.76  .0717    116    1    100.0    5 
 7/08/20  18:40   26.2   26.6   26.2    54   16.2   6.0   ESE   0.50   9.0   ESE   26.2   26.5   26.5  1015.1  0.00  0.00   0.000   0.027   29.1    48   17.0   29.9   8.76  .0717    117    1    100.0    5 
 7/08/20  18:45   26.1   26.2   26.0    54   16.0   5.0   ESE   0.42   8.0   ESE   26.1   26.3   26.3  1015.0  0.00  0.00   0.000   0.027   29.1    48   17.0   29.9   8.76  .0717    117    1    100.0    5 
 7/08/20  18:50   25.9   26.0   25.9    53   15.6   6.0     E   0.50   9.0   ESE   25.9   26.2   26.2  1015.1  0.00  0.00   0.000   0.026   29.1    48   17.0   29.9   8.76  .0717    117    1    100.0    5 
 7/08/20  18:55   25.8   25.9   25.8    54   15.8   5.0     E   0.42   9.0     E   25.8   26.1   26.1  1015.1  0.00  0.00   0.000   0.026   29.1    48   17.0   29.9   8.76  .0717    116    1    100.0    5 
 7/08/20  19:00   25.6   25.8   25.6    55   15.9   5.0     E   0.42   7.0     E   25.6   25.9   25.9  1015.1  0.00  0.00   0.000   0.025   29.1    47   16.6   29.9   8.56  .0717    118    1    100.0    5 
 7/08/20  19:05   25.6   25.7   25.6    56   16.2   4.0     E   0.33   6.0     E   25.6   25.9   25.9  1015.1  0.00  0.00   0.000   0.025   29.1    47   16.6   29.9   8.56  .0717    117    1    100.0    5 
 7/08/20  19:10   25.7   25.7   25.6    54   15.7   4.0     E   0.33   7.0     E   25.7   25.9   25.9  1015.0  0.00  0.00   0.000   0.025   29.1    47   16.6   29.9   8.56  .0717    117    1    100.0    5 
 7/08/20  19:15   25.7   25.7   25.7    54   15.7   6.0     E   0.50   9.0     E   25.7   25.9   25.9  1015.0  0.00  0.00   0.000   0.026   29.1    47   16.6   29.9   8.56  .0717    117    1    100.0    5 
 7/08/20  19:20   25.7   25.7   25.7    54   15.7   5.0     E   0.42   9.0     E   25.7   25.9   25.9  1015.0  0.00  0.00   0.000   0.025   29.1    47   16.6   29.9   8.56  .0717    117    1    100.0    5 
 7/08/20  19:25   25.8   25.8   25.7    54   15.8   3.0     E   0.25   7.0     E   25.8   26.0   26.0  1015.0  0.00  0.00   0.000   0.026   29.2    47   16.7   29.9   8.56  .0717    115    1    100.0    5 
 7/08/20  19:30   25.9   25.9   25.8    52   15.3   4.0     E   0.33   7.0     E   25.9   26.1   26.1  1014.9  0.00  0.00   0.000   0.026   29.2    47   16.7   29.9   8.56  .0717    116    1    100.0    5 
 7/08/20  19:35   26.1   26.1   26.0    52   15.4   5.0     E   0.42   8.0     E   26.1   26.2   26.2  1015.0  0.00  0.00   0.000   0.027   29.2    47   16.7   29.9   8.56  .0717    117    1    100.0    5 
 7/08/20  19:40   26.1   26.1   26.0    51   15.1   4.0     E   0.33   8.0     E   26.1   26.2   26.2  1015.1  0.00  0.00   0.000   0.027   29.2    47   16.7   29.9   8.56  .0717    116    1    100.0    5 
 7/08/20  19:45   26.1   26.1   26.0    50   14.9   3.0   ENE   0.25   6.0     E   26.1   26.2   26.2  1015.1  0.00  0.00   0.000   0.027   29.2    47   16.7   29.9   8.56  .0717    117    1    100.0    5 
 7/08/20  19:50   26.3   26.3   26.1    48   14.4   2.0    NE   0.17   5.0   ENE   26.3   26.3   26.3  1015.1  0.00  0.00   0.000   0.028   29.2    48   17.0   30.0   8.76  .0717    117    1    100.0    5 
 7/08/20  19:55   26.4   26.4   26.3    48   14.5   1.0   NNE   0.08   3.0   ENE   26.4   26.4   26.4  1015.2  0.00  0.00   0.000   0.028   29.2    48   17.1   30.1   8.76  .0717    117    1    100.0    5 
 7/08/20  20:00   26.7   26.7   26.5    46   14.1   2.0    NE   0.17   5.0    NE   26.7   26.5   26.5  1015.2  0.00  0.00   0.000   0.029   29.2    48   17.1   30.1   8.76  .0717    117    1    100.0    5 
 7/08/20  20:05   26.8   26.8   26.7    46   14.2   2.0   ENE   0.17   4.0   ENE   26.8   26.6   26.6  1015.2  0.00  0.00   0.000   0.029   29.2    48   17.1   30.1   8.76  .0717    118    1    100.0    5 
 7/08/20  20:10   26.8   26.8   26.8    46   14.2   2.0   ENE   0.17   4.0   ENE   26.8   26.7   26.7  1015.2  0.00  0.00   0.000   0.030   29.2    48   17.0   30.0   8.76  .0717    117    1    100.0    5 
 7/08/20  20:15   26.9   26.9   26.8    45   14.0   2.0    NE   0.17   3.0    NE   26.9   26.7   26.7  1015.2  0.00  0.00   0.000   0.030   29.2    48   17.1   30.1   8.76  .0717    117    1    100.0    5 
 7/08/20  20:20   26.9   26.9   26.9    45   14.0   1.0   ENE   0.08   3.0   ENE   26.9   26.7   26.7  1015.2  0.00  0.00   0.000   0.030   29.2    48   17.1   30.1   8.76  .0717    117    1    100.0    5 
 7/08/20  20:25   26.9   26.9   26.9    45   14.0   2.0   NNE   0.17   3.0    NE   26.9   26.7   26.7  1015.3  0.00  0.00   0.000   0.030   29.2    48   17.1   30.1   8.76  .0717    117    1    100.0    5 
 7/08/20  20:30   26.9   26.9   26.9    44   13.7   2.0    NE   0.17   5.0     E   26.9   26.7   26.7  1015.3  0.00  0.00   0.000   0.030   29.2    48   17.1   30.1   8.76  .0717    117    1    100.0    5 
 7/08/20  20:35   27.1   27.1   26.9    44   13.8   2.0     E   0.17   6.0     E   27.1   26.8   26.8  1015.3  0.00  0.00   0.000   0.030   29.2    48   17.1   30.1   8.76  .0717    117    1    100.0    5 
 7/08/20  20:40   27.1   27.1   27.1    44   13.8   3.0   ENE   0.25   6.0     E   27.1   26.8   26.8  1015.3  0.00  0.00   0.000   0.030   29.2    48   17.1   30.1   8.76  .0717    117    1    100.0    5 
 7/08/20  20:45   27.1   27.1   27.1    44   13.8   3.0   ENE   0.25   5.0     E   27.1   26.8   26.8  1015.3  0.00  0.00   0.000   0.030   29.2    47   16.7   29.9   8.56  .0717    117    1    100.0    5 
 7/08/20  20:50   27.0   27.1   27.0    45   14.1   3.0   ENE   0.25   5.0     E   27.0   26.8   26.8  1015.3  0.00  0.00   0.000   0.030   29.2    47   16.7   29.9   8.56  .0717    115    1    100.0    5 
 7/08/20  20:55   27.0   27.1   27.0    45   14.1   3.0   ENE   0.25   5.0   ENE   27.0   26.8   26.8  1015.4  0.00  0.00   0.000   0.030   29.2    47   16.7   29.9   8.56  .0717    116    1    100.0    5 
 7/08/20  21:00   26.9   27.0   26.9    45   14.0   2.0   ENE   0.17   3.0   ENE   26.9   26.7   26.7  1015.4  0.00  0.00   0.000   0.030   29.3    47   16.8   30.0   8.56  .0717    116    1    100.0    5 
 7/08/20  21:05   26.8   26.9   26.8    46   14.2   2.0    NE   0.17   4.0    NE   26.8   26.7   26.7  1015.4  0.00  0.00   0.000   0.030   29.3    47   16.8   30.0   8.56  .0717    116    1    100.0    5 
 7/08/20  21:10   26.7   26.8   26.6    47   14.4   2.0    NE   0.17   3.0    NE   26.7   26.6   26.6  1015.6  0.00  0.00   0.000   0.029   29.3    47   16.8   30.0   8.56  .0717    118    1    100.0    5 
 7/08/20  21:15   26.5   26.7   26.5    47   14.3   2.0    NE   0.17   5.0     E   26.5   26.4   26.4  1015.6  0.00  0.00   0.000   0.028   29.3    47   16.8   30.0   8.56  .0717    116    1    100.0    5 
 7/08/20  21:20   26.6   26.6   26.5    47   14.4   4.0     E   0.33   7.0     E   26.6   26.5   26.5  1015.7  0.00  0.00   0.000   0.029   29.3    47   16.8   30.0   8.56  .0717    117    1    100.0    5 
 7/08/20  21:25   26.7   26.7   26.6    48   14.7   3.0     E   0.25   8.0     E   26.7   26.6   26.6  1015.8  0.00  0.00   0.000   0.029   29.3    47   16.8   30.0   8.56  .0717    117    1    100.0    5 
112890